<?xml version="1.0" encoding="UTF-8" standalone="no" ?>
<gpx xmlns="http://www.topografix.com/GPX/1/1" xmlns:xsi="http://www.w3.org/2001/XMLSchema-instance" xsi:schemaLocation="http://www.topografix.com/GPX/1/1 http://www.topografix.com/GPX/1/1/gpx.xsd" version="1.1" creator="VisuGPX - https://www.visugpx.com">
  <metadata>
    <name>83-M-Sillans la cascade</name>
    <desc><![CDATA[83-M-Sillans la cascade : circuit de Sillans à Salernes]]></desc>
  </metadata>
  <trk>
    <name><![CDATA[Salernes Sillans la Cascade10km3 D 260m F1 3 h 30 Ven Voit 60km]]></name>
    <trkseg>
      <trkpt lat="43.56809" lon="6.18177">
        <ele>369.9</ele>
        <time>2016-09-14T11:59:25Z</time>
      </trkpt>
      <trkpt lat="43.56809" lon="6.18177">
        <ele>369.9</ele>
        <time>2016-09-14T11:59:26Z</time>
      </trkpt>
      <trkpt lat="43.56814" lon="6.18166">
        <ele>369.3</ele>
        <time>2016-09-14T12:01:43Z</time>
      </trkpt>
      <trkpt lat="43.56821" lon="6.18158">
        <ele>370</ele>
        <time>2016-09-14T12:04:35Z</time>
      </trkpt>
      <trkpt lat="43.56827" lon="6.18146">
        <ele>369.5</ele>
        <time>2016-09-14T12:04:48Z</time>
      </trkpt>
      <trkpt lat="43.5683" lon="6.18134">
        <ele>369.9</ele>
        <time>2016-09-14T12:04:59Z</time>
      </trkpt>
      <trkpt lat="43.56836" lon="6.18123">
        <ele>370.7</ele>
        <time>2016-09-14T12:05:12Z</time>
      </trkpt>
      <trkpt lat="43.56836" lon="6.18111">
        <ele>370.9</ele>
        <time>2016-09-14T12:05:23Z</time>
      </trkpt>
      <trkpt lat="43.56832" lon="6.18098">
        <ele>371.5</ele>
        <time>2016-09-14T12:05:36Z</time>
      </trkpt>
      <trkpt lat="43.56831" lon="6.18085">
        <ele>371.4</ele>
        <time>2016-09-14T12:05:47Z</time>
      </trkpt>
      <trkpt lat="43.56827" lon="6.18073">
        <ele>371.1</ele>
        <time>2016-09-14T12:05:55Z</time>
      </trkpt>
      <trkpt lat="43.5682" lon="6.18066">
        <ele>371.4</ele>
        <time>2016-09-14T12:06:07Z</time>
      </trkpt>
      <trkpt lat="43.5681" lon="6.18062">
        <ele>372.3</ele>
        <time>2016-09-14T12:06:20Z</time>
      </trkpt>
      <trkpt lat="43.56799" lon="6.18061">
        <ele>372.4</ele>
        <time>2016-09-14T12:06:27Z</time>
      </trkpt>
      <trkpt lat="43.56789" lon="6.18065">
        <ele>372.7</ele>
        <time>2016-09-14T12:06:38Z</time>
      </trkpt>
      <trkpt lat="43.5678" lon="6.18065">
        <ele>373.1</ele>
        <time>2016-09-14T12:06:46Z</time>
      </trkpt>
      <trkpt lat="43.5677" lon="6.18061">
        <ele>373.5</ele>
        <time>2016-09-14T12:06:53Z</time>
      </trkpt>
      <trkpt lat="43.5676" lon="6.1806">
        <ele>373.8</ele>
        <time>2016-09-14T12:06:59Z</time>
      </trkpt>
      <trkpt lat="43.56751" lon="6.18057">
        <ele>374.3</ele>
        <time>2016-09-14T12:07:07Z</time>
      </trkpt>
      <trkpt lat="43.56742" lon="6.18057">
        <ele>375.5</ele>
        <time>2016-09-14T12:07:16Z</time>
      </trkpt>
      <trkpt lat="43.56732" lon="6.18058">
        <ele>375.8</ele>
        <time>2016-09-14T12:07:24Z</time>
      </trkpt>
      <trkpt lat="43.56723" lon="6.18057">
        <ele>376.4</ele>
        <time>2016-09-14T12:07:32Z</time>
      </trkpt>
      <trkpt lat="43.56713" lon="6.18055">
        <ele>376.9</ele>
        <time>2016-09-14T12:07:40Z</time>
      </trkpt>
      <trkpt lat="43.56705" lon="6.18051">
        <ele>378.2</ele>
        <time>2016-09-14T12:07:49Z</time>
      </trkpt>
      <trkpt lat="43.56696" lon="6.18047">
        <ele>378.8</ele>
        <time>2016-09-14T12:07:59Z</time>
      </trkpt>
      <trkpt lat="43.56687" lon="6.18044">
        <ele>378.3</ele>
        <time>2016-09-14T12:08:14Z</time>
      </trkpt>
      <trkpt lat="43.56684" lon="6.18031">
        <ele>377.5</ele>
        <time>2016-09-14T12:08:24Z</time>
      </trkpt>
      <trkpt lat="43.56679" lon="6.1802">
        <ele>377.6</ele>
        <time>2016-09-14T12:08:32Z</time>
      </trkpt>
      <trkpt lat="43.56671" lon="6.18014">
        <ele>377</ele>
        <time>2016-09-14T12:08:43Z</time>
      </trkpt>
      <trkpt lat="43.56663" lon="6.18004">
        <ele>376.1</ele>
        <time>2016-09-14T12:08:55Z</time>
      </trkpt>
      <trkpt lat="43.56654" lon="6.18">
        <ele>375.4</ele>
        <time>2016-09-14T12:09:04Z</time>
      </trkpt>
      <trkpt lat="43.56644" lon="6.18001">
        <ele>375.1</ele>
        <time>2016-09-14T12:09:13Z</time>
      </trkpt>
      <trkpt lat="43.56635" lon="6.18001">
        <ele>374.8</ele>
        <time>2016-09-14T12:09:21Z</time>
      </trkpt>
      <trkpt lat="43.56626" lon="6.18">
        <ele>375.7</ele>
        <time>2016-09-14T12:09:29Z</time>
      </trkpt>
      <trkpt lat="43.56617" lon="6.18001">
        <ele>374.5</ele>
        <time>2016-09-14T12:09:38Z</time>
      </trkpt>
      <trkpt lat="43.56607" lon="6.18002">
        <ele>374.4</ele>
        <time>2016-09-14T12:09:47Z</time>
      </trkpt>
      <trkpt lat="43.56597" lon="6.18002">
        <ele>373.8</ele>
        <time>2016-09-14T12:09:55Z</time>
      </trkpt>
      <trkpt lat="43.56588" lon="6.18003">
        <ele>373.2</ele>
        <time>2016-09-14T12:10:04Z</time>
      </trkpt>
      <trkpt lat="43.56578" lon="6.18004">
        <ele>372.9</ele>
        <time>2016-09-14T12:10:13Z</time>
      </trkpt>
      <trkpt lat="43.56569" lon="6.18005">
        <ele>372.7</ele>
        <time>2016-09-14T12:10:21Z</time>
      </trkpt>
      <trkpt lat="43.5656" lon="6.18006">
        <ele>372.6</ele>
        <time>2016-09-14T12:10:29Z</time>
      </trkpt>
      <trkpt lat="43.56551" lon="6.18004">
        <ele>372.6</ele>
        <time>2016-09-14T12:10:37Z</time>
      </trkpt>
      <trkpt lat="43.56542" lon="6.18">
        <ele>372.7</ele>
        <time>2016-09-14T12:10:46Z</time>
      </trkpt>
      <trkpt lat="43.56532" lon="6.17997">
        <ele>371.9</ele>
        <time>2016-09-14T12:10:55Z</time>
      </trkpt>
      <trkpt lat="43.56525" lon="6.1799">
        <ele>371.1</ele>
        <time>2016-09-14T12:11:04Z</time>
      </trkpt>
      <trkpt lat="43.56519" lon="6.17979">
        <ele>370.6</ele>
        <time>2016-09-14T12:11:15Z</time>
      </trkpt>
      <trkpt lat="43.56511" lon="6.17972">
        <ele>370</ele>
        <time>2016-09-14T12:11:24Z</time>
      </trkpt>
      <trkpt lat="43.56502" lon="6.17966">
        <ele>368.9</ele>
        <time>2016-09-14T12:11:34Z</time>
      </trkpt>
      <trkpt lat="43.56492" lon="6.17968">
        <ele>368.4</ele>
        <time>2016-09-14T12:11:43Z</time>
      </trkpt>
      <trkpt lat="43.56482" lon="6.17971">
        <ele>367.7</ele>
        <time>2016-09-14T12:11:53Z</time>
      </trkpt>
      <trkpt lat="43.56479" lon="6.17959">
        <ele>366.4</ele>
        <time>2016-09-14T12:12:10Z</time>
      </trkpt>
      <trkpt lat="43.56471" lon="6.17952">
        <ele>365.9</ele>
        <time>2016-09-14T12:12:21Z</time>
      </trkpt>
      <trkpt lat="43.56463" lon="6.17959">
        <ele>365.2</ele>
        <time>2016-09-14T12:12:31Z</time>
      </trkpt>
      <trkpt lat="43.56458" lon="6.1797">
        <ele>364.2</ele>
        <time>2016-09-14T12:12:42Z</time>
      </trkpt>
      <trkpt lat="43.56456" lon="6.17982">
        <ele>364</ele>
        <time>2016-09-14T12:12:50Z</time>
      </trkpt>
      <trkpt lat="43.56453" lon="6.17994">
        <ele>363.5</ele>
        <time>2016-09-14T12:12:58Z</time>
      </trkpt>
      <trkpt lat="43.56449" lon="6.18006">
        <ele>363.3</ele>
        <time>2016-09-14T12:13:07Z</time>
      </trkpt>
      <trkpt lat="43.56448" lon="6.18018">
        <ele>363.1</ele>
        <time>2016-09-14T12:13:17Z</time>
      </trkpt>
      <trkpt lat="43.56443" lon="6.18029">
        <ele>363.3</ele>
        <time>2016-09-14T12:13:26Z</time>
      </trkpt>
      <trkpt lat="43.56441" lon="6.18041">
        <ele>362.9</ele>
        <time>2016-09-14T12:13:35Z</time>
      </trkpt>
      <trkpt lat="43.5644" lon="6.18054">
        <ele>362.2</ele>
        <time>2016-09-14T12:13:46Z</time>
      </trkpt>
      <trkpt lat="43.56435" lon="6.18067">
        <ele>362</ele>
        <time>2016-09-14T12:13:56Z</time>
      </trkpt>
      <trkpt lat="43.56431" lon="6.18078">
        <ele>361.4</ele>
        <time>2016-09-14T12:14:06Z</time>
      </trkpt>
      <trkpt lat="43.56429" lon="6.1809">
        <ele>360.8</ele>
        <time>2016-09-14T12:14:16Z</time>
      </trkpt>
      <trkpt lat="43.56425" lon="6.18102">
        <ele>359.5</ele>
        <time>2016-09-14T12:14:28Z</time>
      </trkpt>
      <trkpt lat="43.56423" lon="6.18115">
        <ele>357.9</ele>
        <time>2016-09-14T12:14:41Z</time>
      </trkpt>
      <trkpt lat="43.56417" lon="6.18124">
        <ele>356.8</ele>
        <time>2016-09-14T12:14:51Z</time>
      </trkpt>
      <trkpt lat="43.56407" lon="6.18127">
        <ele>355.8</ele>
        <time>2016-09-14T12:15:00Z</time>
      </trkpt>
      <trkpt lat="43.56398" lon="6.1813">
        <ele>354.4</ele>
        <time>2016-09-14T12:15:14Z</time>
      </trkpt>
      <trkpt lat="43.56389" lon="6.18128">
        <ele>353.2</ele>
        <time>2016-09-14T12:15:22Z</time>
      </trkpt>
      <trkpt lat="43.5638" lon="6.18122">
        <ele>350.8</ele>
        <time>2016-09-14T12:15:40Z</time>
      </trkpt>
      <trkpt lat="43.5637" lon="6.18122">
        <ele>349.1</ele>
        <time>2016-09-14T12:15:50Z</time>
      </trkpt>
      <trkpt lat="43.5636" lon="6.18122">
        <ele>348.1</ele>
        <time>2016-09-14T12:15:57Z</time>
      </trkpt>
      <trkpt lat="43.56353" lon="6.18131">
        <ele>347.1</ele>
        <time>2016-09-14T12:16:06Z</time>
      </trkpt>
      <trkpt lat="43.56346" lon="6.18141">
        <ele>346.2</ele>
        <time>2016-09-14T12:16:14Z</time>
      </trkpt>
      <trkpt lat="43.56341" lon="6.18151">
        <ele>346.1</ele>
        <time>2016-09-14T12:16:22Z</time>
      </trkpt>
      <trkpt lat="43.56334" lon="6.18162">
        <ele>346.4</ele>
        <time>2016-09-14T12:16:35Z</time>
      </trkpt>
      <trkpt lat="43.5633" lon="6.18174">
        <ele>346.1</ele>
        <time>2016-09-14T12:16:45Z</time>
      </trkpt>
      <trkpt lat="43.56326" lon="6.18186">
        <ele>345.8</ele>
        <time>2016-09-14T12:16:53Z</time>
      </trkpt>
      <trkpt lat="43.56321" lon="6.18197">
        <ele>345.4</ele>
        <time>2016-09-14T12:17:00Z</time>
      </trkpt>
      <trkpt lat="43.56316" lon="6.18209">
        <ele>344.9</ele>
        <time>2016-09-14T12:17:08Z</time>
      </trkpt>
      <trkpt lat="43.5631" lon="6.18219">
        <ele>344.6</ele>
        <time>2016-09-14T12:17:15Z</time>
      </trkpt>
      <trkpt lat="43.56303" lon="6.18229">
        <ele>344.6</ele>
        <time>2016-09-14T12:17:22Z</time>
      </trkpt>
      <trkpt lat="43.56297" lon="6.18239">
        <ele>344.5</ele>
        <time>2016-09-14T12:17:29Z</time>
      </trkpt>
      <trkpt lat="43.56292" lon="6.1825">
        <ele>344.2</ele>
        <time>2016-09-14T12:17:38Z</time>
      </trkpt>
      <trkpt lat="43.56288" lon="6.18262">
        <ele>343.9</ele>
        <time>2016-09-14T12:17:45Z</time>
      </trkpt>
      <trkpt lat="43.56287" lon="6.18274">
        <ele>343.7</ele>
        <time>2016-09-14T12:17:54Z</time>
      </trkpt>
      <trkpt lat="43.56286" lon="6.18288">
        <ele>343.4</ele>
        <time>2016-09-14T12:18:02Z</time>
      </trkpt>
      <trkpt lat="43.56284" lon="6.18301">
        <ele>343.5</ele>
        <time>2016-09-14T12:18:11Z</time>
      </trkpt>
      <trkpt lat="43.56284" lon="6.18313">
        <ele>343.4</ele>
        <time>2016-09-14T12:18:19Z</time>
      </trkpt>
      <trkpt lat="43.56284" lon="6.18326">
        <ele>343.2</ele>
        <time>2016-09-14T12:18:28Z</time>
      </trkpt>
      <trkpt lat="43.56282" lon="6.18339">
        <ele>343</ele>
        <time>2016-09-14T12:18:36Z</time>
      </trkpt>
      <trkpt lat="43.5628" lon="6.18351">
        <ele>342.8</ele>
        <time>2016-09-14T12:18:44Z</time>
      </trkpt>
      <trkpt lat="43.56273" lon="6.1836">
        <ele>342.1</ele>
        <time>2016-09-14T12:18:55Z</time>
      </trkpt>
      <trkpt lat="43.56264" lon="6.18364">
        <ele>342</ele>
        <time>2016-09-14T12:19:05Z</time>
      </trkpt>
      <trkpt lat="43.56255" lon="6.18368">
        <ele>342.6</ele>
        <time>2016-09-14T12:19:15Z</time>
      </trkpt>
      <trkpt lat="43.56252" lon="6.1838">
        <ele>343.1</ele>
        <time>2016-09-14T12:19:27Z</time>
      </trkpt>
      <trkpt lat="43.56252" lon="6.18393">
        <ele>343.2</ele>
        <time>2016-09-14T12:19:37Z</time>
      </trkpt>
      <trkpt lat="43.56252" lon="6.18405">
        <ele>343.4</ele>
        <time>2016-09-14T12:19:46Z</time>
      </trkpt>
      <trkpt lat="43.56254" lon="6.18418">
        <ele>343.6</ele>
        <time>2016-09-14T12:19:56Z</time>
      </trkpt>
      <trkpt lat="43.56257" lon="6.1843">
        <ele>343</ele>
        <time>2016-09-14T12:20:06Z</time>
      </trkpt>
      <trkpt lat="43.5626" lon="6.18443">
        <ele>342.4</ele>
        <time>2016-09-14T12:20:13Z</time>
      </trkpt>
      <trkpt lat="43.56263" lon="6.18455">
        <ele>340.6</ele>
        <time>2016-09-14T12:21:18Z</time>
      </trkpt>
      <trkpt lat="43.56259" lon="6.18466">
        <ele>340.1</ele>
        <time>2016-09-14T12:21:43Z</time>
      </trkpt>
      <trkpt lat="43.56256" lon="6.18477">
        <ele>339.7</ele>
        <time>2016-09-14T12:21:56Z</time>
      </trkpt>
      <trkpt lat="43.56254" lon="6.1849">
        <ele>339.2</ele>
        <time>2016-09-14T12:22:07Z</time>
      </trkpt>
      <trkpt lat="43.56248" lon="6.18501">
        <ele>339.1</ele>
        <time>2016-09-14T12:22:16Z</time>
      </trkpt>
      <trkpt lat="43.56241" lon="6.18511">
        <ele>339</ele>
        <time>2016-09-14T12:22:25Z</time>
      </trkpt>
      <trkpt lat="43.5624" lon="6.18523">
        <ele>339.4</ele>
        <time>2016-09-14T12:22:39Z</time>
      </trkpt>
      <trkpt lat="43.56245" lon="6.18534">
        <ele>339.7</ele>
        <time>2016-09-14T12:22:45Z</time>
      </trkpt>
      <trkpt lat="43.56246" lon="6.18546">
        <ele>339.4</ele>
        <time>2016-09-14T12:22:54Z</time>
      </trkpt>
      <trkpt lat="43.56238" lon="6.18554">
        <ele>339.4</ele>
        <time>2016-09-14T12:23:00Z</time>
      </trkpt>
      <trkpt lat="43.56231" lon="6.18563">
        <ele>339.6</ele>
        <time>2016-09-14T12:23:07Z</time>
      </trkpt>
      <trkpt lat="43.56225" lon="6.18572">
        <ele>339.9</ele>
        <time>2016-09-14T12:23:14Z</time>
      </trkpt>
      <trkpt lat="43.56219" lon="6.18584">
        <ele>339.9</ele>
        <time>2016-09-14T12:23:23Z</time>
      </trkpt>
      <trkpt lat="43.56219" lon="6.18597">
        <ele>340.4</ele>
        <time>2016-09-14T12:23:34Z</time>
      </trkpt>
      <trkpt lat="43.56213" lon="6.18606">
        <ele>340.9</ele>
        <time>2016-09-14T12:23:42Z</time>
      </trkpt>
      <trkpt lat="43.56208" lon="6.18618">
        <ele>341.6</ele>
        <time>2016-09-14T12:23:50Z</time>
      </trkpt>
      <trkpt lat="43.56205" lon="6.18631">
        <ele>341.8</ele>
        <time>2016-09-14T12:23:58Z</time>
      </trkpt>
      <trkpt lat="43.56202" lon="6.18643">
        <ele>341.1</ele>
        <time>2016-09-14T12:24:07Z</time>
      </trkpt>
      <trkpt lat="43.56195" lon="6.18651">
        <ele>341.4</ele>
        <time>2016-09-14T12:24:26Z</time>
      </trkpt>
      <trkpt lat="43.56191" lon="6.18663">
        <ele>341.5</ele>
        <time>2016-09-14T12:24:37Z</time>
      </trkpt>
      <trkpt lat="43.56185" lon="6.18673">
        <ele>341.9</ele>
        <time>2016-09-14T12:24:47Z</time>
      </trkpt>
      <trkpt lat="43.56183" lon="6.18685">
        <ele>341.9</ele>
        <time>2016-09-14T12:24:55Z</time>
      </trkpt>
      <trkpt lat="43.56176" lon="6.18694">
        <ele>341.9</ele>
        <time>2016-09-14T12:25:05Z</time>
      </trkpt>
      <trkpt lat="43.5617" lon="6.18704">
        <ele>341.2</ele>
        <time>2016-09-14T12:25:17Z</time>
      </trkpt>
      <trkpt lat="43.56164" lon="6.18714">
        <ele>340.6</ele>
        <time>2016-09-14T12:25:27Z</time>
      </trkpt>
      <trkpt lat="43.56159" lon="6.18725">
        <ele>340.2</ele>
        <time>2016-09-14T12:25:34Z</time>
      </trkpt>
      <trkpt lat="43.56155" lon="6.18736">
        <ele>339.5</ele>
        <time>2016-09-14T12:25:44Z</time>
      </trkpt>
      <trkpt lat="43.56153" lon="6.18749">
        <ele>338.8</ele>
        <time>2016-09-14T12:25:54Z</time>
      </trkpt>
      <trkpt lat="43.56151" lon="6.18762">
        <ele>338.7</ele>
        <time>2016-09-14T12:26:04Z</time>
      </trkpt>
      <trkpt lat="43.56144" lon="6.18771">
        <ele>338.8</ele>
        <time>2016-09-14T12:26:12Z</time>
      </trkpt>
      <trkpt lat="43.56138" lon="6.18782">
        <ele>338.3</ele>
        <time>2016-09-14T12:26:24Z</time>
      </trkpt>
      <trkpt lat="43.56131" lon="6.18791">
        <ele>338</ele>
        <time>2016-09-14T12:26:33Z</time>
      </trkpt>
      <trkpt lat="43.56124" lon="6.18799">
        <ele>337</ele>
        <time>2016-09-14T12:26:42Z</time>
      </trkpt>
      <trkpt lat="43.56122" lon="6.18812">
        <ele>335.8</ele>
        <time>2016-09-14T12:26:52Z</time>
      </trkpt>
      <trkpt lat="43.56119" lon="6.18824">
        <ele>334.9</ele>
        <time>2016-09-14T12:27:01Z</time>
      </trkpt>
      <trkpt lat="43.56116" lon="6.18837">
        <ele>334.9</ele>
        <time>2016-09-14T12:27:11Z</time>
      </trkpt>
      <trkpt lat="43.56113" lon="6.18849">
        <ele>335</ele>
        <time>2016-09-14T12:27:22Z</time>
      </trkpt>
      <trkpt lat="43.56113" lon="6.18862">
        <ele>335</ele>
        <time>2016-09-14T12:27:33Z</time>
      </trkpt>
      <trkpt lat="43.56111" lon="6.18875">
        <ele>335.3</ele>
        <time>2016-09-14T12:27:42Z</time>
      </trkpt>
      <trkpt lat="43.56113" lon="6.18888">
        <ele>335</ele>
        <time>2016-09-14T12:27:51Z</time>
      </trkpt>
      <trkpt lat="43.56109" lon="6.189">
        <ele>335.8</ele>
        <time>2016-09-14T12:27:59Z</time>
      </trkpt>
      <trkpt lat="43.56104" lon="6.18911">
        <ele>336.2</ele>
        <time>2016-09-14T12:28:08Z</time>
      </trkpt>
      <trkpt lat="43.56098" lon="6.1892">
        <ele>336.1</ele>
        <time>2016-09-14T12:28:17Z</time>
      </trkpt>
      <trkpt lat="43.56096" lon="6.18934">
        <ele>335</ele>
        <time>2016-09-14T12:28:29Z</time>
      </trkpt>
      <trkpt lat="43.56092" lon="6.18947">
        <ele>334</ele>
        <time>2016-09-14T12:28:40Z</time>
      </trkpt>
      <trkpt lat="43.56092" lon="6.1896">
        <ele>332.9</ele>
        <time>2016-09-14T12:28:52Z</time>
      </trkpt>
      <trkpt lat="43.56083" lon="6.18974">
        <ele>331</ele>
        <time>2016-09-14T12:29:04Z</time>
      </trkpt>
      <trkpt lat="43.56083" lon="6.18988">
        <ele>330</ele>
        <time>2016-09-14T12:29:31Z</time>
      </trkpt>
      <trkpt lat="43.56083" lon="6.19003">
        <ele>331</ele>
        <time>2016-09-14T12:29:51Z</time>
      </trkpt>
      <trkpt lat="43.56083" lon="6.19016">
        <ele>330</ele>
        <time>2016-09-14T12:30:08Z</time>
      </trkpt>
      <trkpt lat="43.56082" lon="6.1903">
        <ele>328</ele>
        <time>2016-09-14T12:30:28Z</time>
      </trkpt>
      <trkpt lat="43.56089" lon="6.19039">
        <ele>327</ele>
        <time>2016-09-14T12:30:43Z</time>
      </trkpt>
      <trkpt lat="43.56096" lon="6.19048">
        <ele>326.2</ele>
        <time>2016-09-14T12:30:55Z</time>
      </trkpt>
      <trkpt lat="43.56102" lon="6.19058">
        <ele>325.3</ele>
        <time>2016-09-14T12:31:06Z</time>
      </trkpt>
      <trkpt lat="43.56096" lon="6.19067">
        <ele>324.7</ele>
        <time>2016-09-14T12:31:15Z</time>
      </trkpt>
      <trkpt lat="43.56087" lon="6.19073">
        <ele>324.7</ele>
        <time>2016-09-14T12:31:51Z</time>
      </trkpt>
      <trkpt lat="43.56086" lon="6.19085">
        <ele>324.5</ele>
        <time>2016-09-14T12:32:55Z</time>
      </trkpt>
      <trkpt lat="43.56091" lon="6.19096">
        <ele>323.9</ele>
        <time>2016-09-14T12:33:05Z</time>
      </trkpt>
      <trkpt lat="43.56089" lon="6.1911">
        <ele>323.2</ele>
        <time>2016-09-14T12:33:14Z</time>
      </trkpt>
      <trkpt lat="43.56087" lon="6.19122">
        <ele>322.4</ele>
        <time>2016-09-14T12:33:22Z</time>
      </trkpt>
      <trkpt lat="43.5609" lon="6.19134">
        <ele>322</ele>
        <time>2016-09-14T12:33:31Z</time>
      </trkpt>
      <trkpt lat="43.56097" lon="6.19143">
        <ele>321.6</ele>
        <time>2016-09-14T12:33:41Z</time>
      </trkpt>
      <trkpt lat="43.56099" lon="6.19155">
        <ele>321.6</ele>
        <time>2016-09-14T12:33:56Z</time>
      </trkpt>
      <trkpt lat="43.56106" lon="6.19164">
        <ele>321.3</ele>
        <time>2016-09-14T12:34:06Z</time>
      </trkpt>
      <trkpt lat="43.56115" lon="6.19166">
        <ele>319.7</ele>
        <time>2016-09-14T12:34:38Z</time>
      </trkpt>
      <trkpt lat="43.56124" lon="6.19158">
        <ele>318.4</ele>
        <time>2016-09-14T12:35:03Z</time>
      </trkpt>
      <trkpt lat="43.56134" lon="6.1916">
        <ele>317.2</ele>
        <time>2016-09-14T12:35:14Z</time>
      </trkpt>
      <trkpt lat="43.56145" lon="6.19159">
        <ele>315.7</ele>
        <time>2016-09-14T12:35:28Z</time>
      </trkpt>
      <trkpt lat="43.56153" lon="6.19165">
        <ele>315.1</ele>
        <time>2016-09-14T12:35:35Z</time>
      </trkpt>
      <trkpt lat="43.56159" lon="6.19175">
        <ele>313.8</ele>
        <time>2016-09-14T12:35:47Z</time>
      </trkpt>
      <trkpt lat="43.56168" lon="6.19175">
        <ele>311.9</ele>
        <time>2016-09-14T12:35:59Z</time>
      </trkpt>
      <trkpt lat="43.56177" lon="6.19176">
        <ele>310.1</ele>
        <time>2016-09-14T12:36:13Z</time>
      </trkpt>
      <trkpt lat="43.56186" lon="6.19175">
        <ele>308.9</ele>
        <time>2016-09-14T12:36:24Z</time>
      </trkpt>
      <trkpt lat="43.56196" lon="6.19175">
        <ele>306.8</ele>
        <time>2016-09-14T12:36:39Z</time>
      </trkpt>
      <trkpt lat="43.56204" lon="6.19179">
        <ele>304.7</ele>
        <time>2016-09-14T12:36:50Z</time>
      </trkpt>
      <trkpt lat="43.56211" lon="6.19187">
        <ele>303.5</ele>
        <time>2016-09-14T12:37:01Z</time>
      </trkpt>
      <trkpt lat="43.5622" lon="6.19193">
        <ele>301.8</ele>
        <time>2016-09-14T12:37:11Z</time>
      </trkpt>
      <trkpt lat="43.56228" lon="6.192">
        <ele>299.8</ele>
        <time>2016-09-14T12:37:22Z</time>
      </trkpt>
      <trkpt lat="43.56237" lon="6.19205">
        <ele>298.6</ele>
        <time>2016-09-14T12:37:39Z</time>
      </trkpt>
      <trkpt lat="43.56244" lon="6.19214">
        <ele>296.8</ele>
        <time>2016-09-14T12:37:55Z</time>
      </trkpt>
      <trkpt lat="43.56253" lon="6.19214">
        <ele>295.1</ele>
        <time>2016-09-14T12:38:11Z</time>
      </trkpt>
      <trkpt lat="43.56261" lon="6.1922">
        <ele>294.2</ele>
        <time>2016-09-14T12:38:22Z</time>
      </trkpt>
      <trkpt lat="43.56271" lon="6.1922">
        <ele>292.8</ele>
        <time>2016-09-14T12:38:42Z</time>
      </trkpt>
      <trkpt lat="43.56278" lon="6.19228">
        <ele>291.4</ele>
        <time>2016-09-14T12:38:57Z</time>
      </trkpt>
      <trkpt lat="43.56287" lon="6.19231">
        <ele>288.9</ele>
        <time>2016-09-14T12:39:13Z</time>
      </trkpt>
      <trkpt lat="43.56296" lon="6.19231">
        <ele>286</ele>
        <time>2016-09-14T12:39:33Z</time>
      </trkpt>
      <trkpt lat="43.56304" lon="6.19239">
        <ele>283.7</ele>
        <time>2016-09-14T12:39:58Z</time>
      </trkpt>
      <trkpt lat="43.56312" lon="6.19245">
        <ele>279.5</ele>
        <time>2016-09-14T12:40:28Z</time>
      </trkpt>
      <trkpt lat="43.56321" lon="6.19248">
        <ele>278.3</ele>
        <time>2016-09-14T12:40:39Z</time>
      </trkpt>
      <trkpt lat="43.5633" lon="6.19256">
        <ele>278.1</ele>
        <time>2016-09-14T12:40:49Z</time>
      </trkpt>
      <trkpt lat="43.56336" lon="6.19266">
        <ele>278.1</ele>
        <time>2016-09-14T12:40:57Z</time>
      </trkpt>
      <trkpt lat="43.5634" lon="6.19278">
        <ele>277.8</ele>
        <time>2016-09-14T12:41:06Z</time>
      </trkpt>
      <trkpt lat="43.56343" lon="6.19291">
        <ele>276.9</ele>
        <time>2016-09-14T12:41:16Z</time>
      </trkpt>
      <trkpt lat="43.56347" lon="6.19303">
        <ele>275.7</ele>
        <time>2016-09-14T12:41:29Z</time>
      </trkpt>
      <trkpt lat="43.56354" lon="6.19313">
        <ele>274.9</ele>
        <time>2016-09-14T12:41:38Z</time>
      </trkpt>
      <trkpt lat="43.56357" lon="6.19325">
        <ele>273.6</ele>
        <time>2016-09-14T12:41:50Z</time>
      </trkpt>
      <trkpt lat="43.56363" lon="6.19337">
        <ele>272.8</ele>
        <time>2016-09-14T12:42:02Z</time>
      </trkpt>
      <trkpt lat="43.56357" lon="6.19346">
        <ele>272.3</ele>
        <time>2016-09-14T12:43:24Z</time>
      </trkpt>
      <trkpt lat="43.56365" lon="6.19351">
        <ele>272</ele>
        <time>2016-09-14T12:48:13Z</time>
      </trkpt>
      <trkpt lat="43.5637" lon="6.19362">
        <ele>273.1</ele>
        <time>2016-09-14T12:48:26Z</time>
      </trkpt>
      <trkpt lat="43.5637" lon="6.19374">
        <ele>273.9</ele>
        <time>2016-09-14T12:48:42Z</time>
      </trkpt>
      <trkpt lat="43.56373" lon="6.19387">
        <ele>275.1</ele>
        <time>2016-09-14T12:48:53Z</time>
      </trkpt>
      <trkpt lat="43.56377" lon="6.19399">
        <ele>275.7</ele>
        <time>2016-09-14T12:49:03Z</time>
      </trkpt>
      <trkpt lat="43.56382" lon="6.1941">
        <ele>276</ele>
        <time>2016-09-14T12:49:12Z</time>
      </trkpt>
      <trkpt lat="43.56385" lon="6.19423">
        <ele>276</ele>
        <time>2016-09-14T12:49:19Z</time>
      </trkpt>
      <trkpt lat="43.56387" lon="6.19436">
        <ele>275.9</ele>
        <time>2016-09-14T12:49:28Z</time>
      </trkpt>
      <trkpt lat="43.56385" lon="6.19448">
        <ele>276.3</ele>
        <time>2016-09-14T12:49:37Z</time>
      </trkpt>
      <trkpt lat="43.5638" lon="6.19459">
        <ele>277.1</ele>
        <time>2016-09-14T12:49:46Z</time>
      </trkpt>
      <trkpt lat="43.5638" lon="6.19472">
        <ele>278.3</ele>
        <time>2016-09-14T12:50:01Z</time>
      </trkpt>
      <trkpt lat="43.56378" lon="6.19485">
        <ele>279.4</ele>
        <time>2016-09-14T12:50:11Z</time>
      </trkpt>
      <trkpt lat="43.56383" lon="6.19497">
        <ele>280.5</ele>
        <time>2016-09-14T12:50:20Z</time>
      </trkpt>
      <trkpt lat="43.56387" lon="6.19508">
        <ele>281.8</ele>
        <time>2016-09-14T12:50:34Z</time>
      </trkpt>
      <trkpt lat="43.56396" lon="6.19514">
        <ele>282.9</ele>
        <time>2016-09-14T12:50:50Z</time>
      </trkpt>
      <trkpt lat="43.56405" lon="6.19521">
        <ele>283.5</ele>
        <time>2016-09-14T12:50:59Z</time>
      </trkpt>
      <trkpt lat="43.56412" lon="6.1953">
        <ele>284.1</ele>
        <time>2016-09-14T12:51:07Z</time>
      </trkpt>
      <trkpt lat="43.56409" lon="6.19542">
        <ele>284.4</ele>
        <time>2016-09-14T12:51:16Z</time>
      </trkpt>
      <trkpt lat="43.56403" lon="6.19552">
        <ele>285</ele>
        <time>2016-09-14T12:51:23Z</time>
      </trkpt>
      <trkpt lat="43.56396" lon="6.19562">
        <ele>285.1</ele>
        <time>2016-09-14T12:51:31Z</time>
      </trkpt>
      <trkpt lat="43.56393" lon="6.19575">
        <ele>285</ele>
        <time>2016-09-14T12:51:42Z</time>
      </trkpt>
      <trkpt lat="43.56392" lon="6.19588">
        <ele>285.4</ele>
        <time>2016-09-14T12:51:51Z</time>
      </trkpt>
      <trkpt lat="43.56391" lon="6.19602">
        <ele>286.4</ele>
        <time>2016-09-14T12:52:03Z</time>
      </trkpt>
      <trkpt lat="43.56389" lon="6.19615">
        <ele>287.2</ele>
        <time>2016-09-14T12:52:11Z</time>
      </trkpt>
      <trkpt lat="43.56385" lon="6.19626">
        <ele>289.8</ele>
        <time>2016-09-14T12:52:27Z</time>
      </trkpt>
      <trkpt lat="43.56381" lon="6.19639">
        <ele>292.1</ele>
        <time>2016-09-14T12:52:42Z</time>
      </trkpt>
      <trkpt lat="43.56385" lon="6.19651">
        <ele>293.8</ele>
        <time>2016-09-14T12:52:54Z</time>
      </trkpt>
      <trkpt lat="43.56378" lon="6.1966">
        <ele>295.5</ele>
        <time>2016-09-14T12:53:08Z</time>
      </trkpt>
      <trkpt lat="43.56369" lon="6.19663">
        <ele>297.9</ele>
        <time>2016-09-14T12:53:34Z</time>
      </trkpt>
      <trkpt lat="43.56361" lon="6.19656">
        <ele>299.5</ele>
        <time>2016-09-14T12:53:45Z</time>
      </trkpt>
      <trkpt lat="43.56355" lon="6.19645">
        <ele>301.3</ele>
        <time>2016-09-14T12:53:55Z</time>
      </trkpt>
      <trkpt lat="43.56348" lon="6.19636">
        <ele>303</ele>
        <time>2016-09-14T12:54:04Z</time>
      </trkpt>
      <trkpt lat="43.56342" lon="6.19626">
        <ele>305.1</ele>
        <time>2016-09-14T12:54:14Z</time>
      </trkpt>
      <trkpt lat="43.56335" lon="6.19617">
        <ele>307</ele>
        <time>2016-09-14T12:54:23Z</time>
      </trkpt>
      <trkpt lat="43.56328" lon="6.19609">
        <ele>308.4</ele>
        <time>2016-09-14T12:54:31Z</time>
      </trkpt>
      <trkpt lat="43.5632" lon="6.19604">
        <ele>310.2</ele>
        <time>2016-09-14T12:54:48Z</time>
      </trkpt>
      <trkpt lat="43.56311" lon="6.19595">
        <ele>311.1</ele>
        <time>2016-09-14T12:54:59Z</time>
      </trkpt>
      <trkpt lat="43.56304" lon="6.19586">
        <ele>312.5</ele>
        <time>2016-09-14T12:55:12Z</time>
      </trkpt>
      <trkpt lat="43.56297" lon="6.19578">
        <ele>313.2</ele>
        <time>2016-09-14T12:55:21Z</time>
      </trkpt>
      <trkpt lat="43.56289" lon="6.19571">
        <ele>314.5</ele>
        <time>2016-09-14T12:55:30Z</time>
      </trkpt>
      <trkpt lat="43.56279" lon="6.19568">
        <ele>315.8</ele>
        <time>2016-09-14T12:55:42Z</time>
      </trkpt>
      <trkpt lat="43.5627" lon="6.19565">
        <ele>316.9</ele>
        <time>2016-09-14T12:55:52Z</time>
      </trkpt>
      <trkpt lat="43.56261" lon="6.19562">
        <ele>318.4</ele>
        <time>2016-09-14T12:56:05Z</time>
      </trkpt>
      <trkpt lat="43.56251" lon="6.1956">
        <ele>320</ele>
        <time>2016-09-14T12:56:14Z</time>
      </trkpt>
      <trkpt lat="43.56242" lon="6.19554">
        <ele>321.4</ele>
        <time>2016-09-14T12:56:25Z</time>
      </trkpt>
      <trkpt lat="43.56233" lon="6.19548">
        <ele>322.7</ele>
        <time>2016-09-14T12:56:37Z</time>
      </trkpt>
      <trkpt lat="43.56224" lon="6.19542">
        <ele>323.6</ele>
        <time>2016-09-14T12:56:47Z</time>
      </trkpt>
      <trkpt lat="43.56215" lon="6.19534">
        <ele>324.9</ele>
        <time>2016-09-14T12:56:57Z</time>
      </trkpt>
      <trkpt lat="43.56208" lon="6.19525">
        <ele>326.5</ele>
        <time>2016-09-14T12:57:07Z</time>
      </trkpt>
      <trkpt lat="43.56202" lon="6.19517">
        <ele>327.4</ele>
        <time>2016-09-14T12:57:17Z</time>
      </trkpt>
      <trkpt lat="43.56194" lon="6.19508">
        <ele>328.5</ele>
        <time>2016-09-14T12:57:30Z</time>
      </trkpt>
      <trkpt lat="43.56185" lon="6.19505">
        <ele>329.3</ele>
        <time>2016-09-14T13:00:26Z</time>
      </trkpt>
      <trkpt lat="43.56176" lon="6.19506">
        <ele>331.5</ele>
        <time>2016-09-14T13:00:50Z</time>
      </trkpt>
      <trkpt lat="43.56166" lon="6.19509">
        <ele>333.7</ele>
        <time>2016-09-14T13:01:05Z</time>
      </trkpt>
      <trkpt lat="43.56159" lon="6.19517">
        <ele>335.5</ele>
        <time>2016-09-14T13:01:17Z</time>
      </trkpt>
      <trkpt lat="43.56166" lon="6.19524">
        <ele>338.9</ele>
        <time>2016-09-14T13:01:40Z</time>
      </trkpt>
      <trkpt lat="43.56175" lon="6.1953">
        <ele>340</ele>
        <time>2016-09-14T13:01:55Z</time>
      </trkpt>
      <trkpt lat="43.5618" lon="6.19541">
        <ele>341.8</ele>
        <time>2016-09-14T13:02:11Z</time>
      </trkpt>
      <trkpt lat="43.56187" lon="6.19549">
        <ele>343.6</ele>
        <time>2016-09-14T13:02:24Z</time>
      </trkpt>
      <trkpt lat="43.5619" lon="6.19561">
        <ele>344.6</ele>
        <time>2016-09-14T13:02:40Z</time>
      </trkpt>
      <trkpt lat="43.56195" lon="6.19573">
        <ele>345.2</ele>
        <time>2016-09-14T13:02:52Z</time>
      </trkpt>
      <trkpt lat="43.56191" lon="6.19584">
        <ele>346.6</ele>
        <time>2016-09-14T13:03:04Z</time>
      </trkpt>
      <trkpt lat="43.56186" lon="6.19595">
        <ele>344</ele>
        <time>2016-09-14T13:03:20Z</time>
      </trkpt>
      <trkpt lat="43.56178" lon="6.19601">
        <ele>342.1</ele>
        <time>2016-09-14T13:03:35Z</time>
      </trkpt>
      <trkpt lat="43.56183" lon="6.19612">
        <ele>341.2</ele>
        <time>2016-09-14T13:04:48Z</time>
      </trkpt>
      <trkpt lat="43.56188" lon="6.19623">
        <ele>341</ele>
        <time>2016-09-14T13:05:06Z</time>
      </trkpt>
      <trkpt lat="43.56181" lon="6.19615">
        <ele>340.7</ele>
        <time>2016-09-14T13:05:40Z</time>
      </trkpt>
      <trkpt lat="43.56176" lon="6.19603">
        <ele>341.3</ele>
        <time>2016-09-14T13:06:04Z</time>
      </trkpt>
      <trkpt lat="43.56183" lon="6.19613">
        <ele>341.1</ele>
        <time>2016-09-14T13:09:33Z</time>
      </trkpt>
      <trkpt lat="43.56189" lon="6.19622">
        <ele>341</ele>
        <time>2016-09-14T13:09:44Z</time>
      </trkpt>
      <trkpt lat="43.5619" lon="6.19635">
        <ele>340</ele>
        <time>2016-09-14T13:09:54Z</time>
      </trkpt>
      <trkpt lat="43.56192" lon="6.19648">
        <ele>338.7</ele>
        <time>2016-09-14T13:10:04Z</time>
      </trkpt>
      <trkpt lat="43.56194" lon="6.19661">
        <ele>337.7</ele>
        <time>2016-09-14T13:10:14Z</time>
      </trkpt>
      <trkpt lat="43.56193" lon="6.19674">
        <ele>336.1</ele>
        <time>2016-09-14T13:10:25Z</time>
      </trkpt>
      <trkpt lat="43.56194" lon="6.19687">
        <ele>334.8</ele>
        <time>2016-09-14T13:10:33Z</time>
      </trkpt>
      <trkpt lat="43.56196" lon="6.197">
        <ele>333.9</ele>
        <time>2016-09-14T13:10:43Z</time>
      </trkpt>
      <trkpt lat="43.56195" lon="6.19713">
        <ele>332.7</ele>
        <time>2016-09-14T13:10:53Z</time>
      </trkpt>
      <trkpt lat="43.56192" lon="6.19726">
        <ele>331.9</ele>
        <time>2016-09-14T13:11:01Z</time>
      </trkpt>
      <trkpt lat="43.56187" lon="6.19737">
        <ele>332</ele>
        <time>2016-09-14T13:11:10Z</time>
      </trkpt>
      <trkpt lat="43.56182" lon="6.19748">
        <ele>331.4</ele>
        <time>2016-09-14T13:11:19Z</time>
      </trkpt>
      <trkpt lat="43.56175" lon="6.19758">
        <ele>331.6</ele>
        <time>2016-09-14T13:11:27Z</time>
      </trkpt>
      <trkpt lat="43.5617" lon="6.19769">
        <ele>331.8</ele>
        <time>2016-09-14T13:11:37Z</time>
      </trkpt>
      <trkpt lat="43.56167" lon="6.19782">
        <ele>332.6</ele>
        <time>2016-09-14T13:11:48Z</time>
      </trkpt>
      <trkpt lat="43.56169" lon="6.19794">
        <ele>334.2</ele>
        <time>2016-09-14T13:11:59Z</time>
      </trkpt>
      <trkpt lat="43.56173" lon="6.19805">
        <ele>335.4</ele>
        <time>2016-09-14T13:12:08Z</time>
      </trkpt>
      <trkpt lat="43.56174" lon="6.19819">
        <ele>336.8</ele>
        <time>2016-09-14T13:12:19Z</time>
      </trkpt>
      <trkpt lat="43.56179" lon="6.19829">
        <ele>337.3</ele>
        <time>2016-09-14T13:12:29Z</time>
      </trkpt>
      <trkpt lat="43.56188" lon="6.19836">
        <ele>337.5</ele>
        <time>2016-09-14T13:12:41Z</time>
      </trkpt>
      <trkpt lat="43.56197" lon="6.19841">
        <ele>337.8</ele>
        <time>2016-09-14T13:12:49Z</time>
      </trkpt>
      <trkpt lat="43.56206" lon="6.19846">
        <ele>338.2</ele>
        <time>2016-09-14T13:12:56Z</time>
      </trkpt>
      <trkpt lat="43.56215" lon="6.19851">
        <ele>338.5</ele>
        <time>2016-09-14T13:13:03Z</time>
      </trkpt>
      <trkpt lat="43.56223" lon="6.19856">
        <ele>338.8</ele>
        <time>2016-09-14T13:13:10Z</time>
      </trkpt>
      <trkpt lat="43.56233" lon="6.19861">
        <ele>339.8</ele>
        <time>2016-09-14T13:13:21Z</time>
      </trkpt>
      <trkpt lat="43.56243" lon="6.19865">
        <ele>340.5</ele>
        <time>2016-09-14T13:13:32Z</time>
      </trkpt>
      <trkpt lat="43.56254" lon="6.19868">
        <ele>340.3</ele>
        <time>2016-09-14T13:13:40Z</time>
      </trkpt>
      <trkpt lat="43.56263" lon="6.19871">
        <ele>339.8</ele>
        <time>2016-09-14T13:13:49Z</time>
      </trkpt>
      <trkpt lat="43.56272" lon="6.19875">
        <ele>339.5</ele>
        <time>2016-09-14T13:13:55Z</time>
      </trkpt>
      <trkpt lat="43.56279" lon="6.19883">
        <ele>339</ele>
        <time>2016-09-14T13:14:01Z</time>
      </trkpt>
      <trkpt lat="43.56286" lon="6.19892">
        <ele>338.6</ele>
        <time>2016-09-14T13:14:09Z</time>
      </trkpt>
      <trkpt lat="43.56293" lon="6.19902">
        <ele>337.9</ele>
        <time>2016-09-14T13:14:17Z</time>
      </trkpt>
      <trkpt lat="43.56299" lon="6.19911">
        <ele>337.9</ele>
        <time>2016-09-14T13:14:25Z</time>
      </trkpt>
      <trkpt lat="43.56306" lon="6.19923">
        <ele>337.9</ele>
        <time>2016-09-14T13:14:33Z</time>
      </trkpt>
      <trkpt lat="43.56313" lon="6.19932">
        <ele>337.7</ele>
        <time>2016-09-14T13:14:40Z</time>
      </trkpt>
      <trkpt lat="43.56317" lon="6.19944">
        <ele>336.8</ele>
        <time>2016-09-14T13:14:49Z</time>
      </trkpt>
      <trkpt lat="43.56323" lon="6.19957">
        <ele>336.6</ele>
        <time>2016-09-14T13:14:58Z</time>
      </trkpt>
      <trkpt lat="43.56328" lon="6.19967">
        <ele>336.8</ele>
        <time>2016-09-14T13:15:05Z</time>
      </trkpt>
      <trkpt lat="43.56333" lon="6.19979">
        <ele>336.6</ele>
        <time>2016-09-14T13:15:12Z</time>
      </trkpt>
      <trkpt lat="43.56335" lon="6.19993">
        <ele>336.1</ele>
        <time>2016-09-14T13:15:23Z</time>
      </trkpt>
      <trkpt lat="43.56334" lon="6.20006">
        <ele>335.9</ele>
        <time>2016-09-14T13:15:31Z</time>
      </trkpt>
      <trkpt lat="43.56338" lon="6.20018">
        <ele>335.5</ele>
        <time>2016-09-14T13:15:39Z</time>
      </trkpt>
      <trkpt lat="43.56343" lon="6.20029">
        <ele>335.7</ele>
        <time>2016-09-14T13:15:46Z</time>
      </trkpt>
      <trkpt lat="43.56347" lon="6.20041">
        <ele>335.5</ele>
        <time>2016-09-14T13:15:55Z</time>
      </trkpt>
      <trkpt lat="43.56343" lon="6.20054">
        <ele>335.1</ele>
        <time>2016-09-14T13:16:04Z</time>
      </trkpt>
      <trkpt lat="43.56343" lon="6.20068">
        <ele>335.1</ele>
        <time>2016-09-14T13:16:12Z</time>
      </trkpt>
      <trkpt lat="43.56347" lon="6.20079">
        <ele>335.9</ele>
        <time>2016-09-14T13:16:21Z</time>
      </trkpt>
      <trkpt lat="43.56349" lon="6.20093">
        <ele>335.8</ele>
        <time>2016-09-14T13:16:30Z</time>
      </trkpt>
      <trkpt lat="43.56356" lon="6.20104">
        <ele>335.7</ele>
        <time>2016-09-14T13:16:37Z</time>
      </trkpt>
      <trkpt lat="43.56364" lon="6.2011">
        <ele>334.9</ele>
        <time>2016-09-14T13:16:45Z</time>
      </trkpt>
      <trkpt lat="43.56372" lon="6.20118">
        <ele>334.1</ele>
        <time>2016-09-14T13:16:52Z</time>
      </trkpt>
      <trkpt lat="43.56378" lon="6.20128">
        <ele>333.5</ele>
        <time>2016-09-14T13:17:00Z</time>
      </trkpt>
      <trkpt lat="43.56381" lon="6.20142">
        <ele>333.3</ele>
        <time>2016-09-14T13:17:09Z</time>
      </trkpt>
      <trkpt lat="43.5639" lon="6.20149">
        <ele>333.5</ele>
        <time>2016-09-14T13:17:15Z</time>
      </trkpt>
      <trkpt lat="43.56392" lon="6.20162">
        <ele>334</ele>
        <time>2016-09-14T13:17:23Z</time>
      </trkpt>
      <trkpt lat="43.56397" lon="6.20173">
        <ele>334.2</ele>
        <time>2016-09-14T13:17:31Z</time>
      </trkpt>
      <trkpt lat="43.56403" lon="6.20185">
        <ele>333.9</ele>
        <time>2016-09-14T13:17:39Z</time>
      </trkpt>
      <trkpt lat="43.56412" lon="6.20193">
        <ele>333.5</ele>
        <time>2016-09-14T13:17:46Z</time>
      </trkpt>
      <trkpt lat="43.56416" lon="6.20204">
        <ele>332.8</ele>
        <time>2016-09-14T13:17:56Z</time>
      </trkpt>
      <trkpt lat="43.56417" lon="6.20217">
        <ele>331.5</ele>
        <time>2016-09-14T13:18:20Z</time>
      </trkpt>
      <trkpt lat="43.56419" lon="6.2023">
        <ele>331.3</ele>
        <time>2016-09-14T13:18:31Z</time>
      </trkpt>
      <trkpt lat="43.5642" lon="6.20243">
        <ele>330.9</ele>
        <time>2016-09-14T13:18:40Z</time>
      </trkpt>
      <trkpt lat="43.56426" lon="6.20253">
        <ele>330.9</ele>
        <time>2016-09-14T13:18:50Z</time>
      </trkpt>
      <trkpt lat="43.56429" lon="6.20265">
        <ele>330.6</ele>
        <time>2016-09-14T13:18:58Z</time>
      </trkpt>
      <trkpt lat="43.56434" lon="6.20276">
        <ele>330.4</ele>
        <time>2016-09-14T13:19:04Z</time>
      </trkpt>
      <trkpt lat="43.56439" lon="6.20287">
        <ele>330.5</ele>
        <time>2016-09-14T13:19:13Z</time>
      </trkpt>
      <trkpt lat="43.56445" lon="6.20297">
        <ele>330.5</ele>
        <time>2016-09-14T13:19:20Z</time>
      </trkpt>
      <trkpt lat="43.5645" lon="6.20308">
        <ele>330</ele>
        <time>2016-09-14T13:19:28Z</time>
      </trkpt>
      <trkpt lat="43.56453" lon="6.2032">
        <ele>329.5</ele>
        <time>2016-09-14T13:19:36Z</time>
      </trkpt>
      <trkpt lat="43.56451" lon="6.20333">
        <ele>329.5</ele>
        <time>2016-09-14T13:19:44Z</time>
      </trkpt>
      <trkpt lat="43.56453" lon="6.20346">
        <ele>329.1</ele>
        <time>2016-09-14T13:19:53Z</time>
      </trkpt>
      <trkpt lat="43.56455" lon="6.20359">
        <ele>328.3</ele>
        <time>2016-09-14T13:20:02Z</time>
      </trkpt>
      <trkpt lat="43.56455" lon="6.20372">
        <ele>327.8</ele>
        <time>2016-09-14T13:20:11Z</time>
      </trkpt>
      <trkpt lat="43.56461" lon="6.20383">
        <ele>327.4</ele>
        <time>2016-09-14T13:20:19Z</time>
      </trkpt>
      <trkpt lat="43.56468" lon="6.20391">
        <ele>326.7</ele>
        <time>2016-09-14T13:20:24Z</time>
      </trkpt>
      <trkpt lat="43.56475" lon="6.204">
        <ele>325.2</ele>
        <time>2016-09-14T13:20:35Z</time>
      </trkpt>
      <trkpt lat="43.56477" lon="6.20413">
        <ele>323.8</ele>
        <time>2016-09-14T13:20:43Z</time>
      </trkpt>
      <trkpt lat="43.5648" lon="6.20425">
        <ele>322.7</ele>
        <time>2016-09-14T13:20:52Z</time>
      </trkpt>
      <trkpt lat="43.56481" lon="6.20438">
        <ele>322.1</ele>
        <time>2016-09-14T13:20:59Z</time>
      </trkpt>
      <trkpt lat="43.56481" lon="6.20451">
        <ele>322.1</ele>
        <time>2016-09-14T13:21:09Z</time>
      </trkpt>
      <trkpt lat="43.56488" lon="6.20462">
        <ele>322.7</ele>
        <time>2016-09-14T13:21:19Z</time>
      </trkpt>
      <trkpt lat="43.56494" lon="6.20473">
        <ele>323.2</ele>
        <time>2016-09-14T13:21:28Z</time>
      </trkpt>
      <trkpt lat="43.56496" lon="6.20486">
        <ele>322.4</ele>
        <time>2016-09-14T13:21:38Z</time>
      </trkpt>
      <trkpt lat="43.56496" lon="6.20499">
        <ele>321.3</ele>
        <time>2016-09-14T13:21:45Z</time>
      </trkpt>
      <trkpt lat="43.56495" lon="6.20512">
        <ele>319.9</ele>
        <time>2016-09-14T13:21:54Z</time>
      </trkpt>
      <trkpt lat="43.56497" lon="6.20525">
        <ele>318.5</ele>
        <time>2016-09-14T13:22:02Z</time>
      </trkpt>
      <trkpt lat="43.56501" lon="6.20537">
        <ele>317.2</ele>
        <time>2016-09-14T13:22:09Z</time>
      </trkpt>
      <trkpt lat="43.56504" lon="6.2055">
        <ele>316.4</ele>
        <time>2016-09-14T13:22:21Z</time>
      </trkpt>
      <trkpt lat="43.56506" lon="6.20563">
        <ele>316.3</ele>
        <time>2016-09-14T13:22:30Z</time>
      </trkpt>
      <trkpt lat="43.56511" lon="6.20575">
        <ele>316.6</ele>
        <time>2016-09-14T13:22:39Z</time>
      </trkpt>
      <trkpt lat="43.56516" lon="6.20586">
        <ele>316.9</ele>
        <time>2016-09-14T13:22:48Z</time>
      </trkpt>
      <trkpt lat="43.5652" lon="6.20598">
        <ele>316.7</ele>
        <time>2016-09-14T13:22:55Z</time>
      </trkpt>
      <trkpt lat="43.56525" lon="6.2061">
        <ele>316</ele>
        <time>2016-09-14T13:23:02Z</time>
      </trkpt>
      <trkpt lat="43.5653" lon="6.20622">
        <ele>315.3</ele>
        <time>2016-09-14T13:23:09Z</time>
      </trkpt>
      <trkpt lat="43.56532" lon="6.20634">
        <ele>315.4</ele>
        <time>2016-09-14T13:23:19Z</time>
      </trkpt>
      <trkpt lat="43.56539" lon="6.20645">
        <ele>314.8</ele>
        <time>2016-09-14T13:23:26Z</time>
      </trkpt>
      <trkpt lat="43.56545" lon="6.20654">
        <ele>314.7</ele>
        <time>2016-09-14T13:23:32Z</time>
      </trkpt>
      <trkpt lat="43.56552" lon="6.20664">
        <ele>314.8</ele>
        <time>2016-09-14T13:23:39Z</time>
      </trkpt>
      <trkpt lat="43.56558" lon="6.20675">
        <ele>314.6</ele>
        <time>2016-09-14T13:23:49Z</time>
      </trkpt>
      <trkpt lat="43.56566" lon="6.20682">
        <ele>314.9</ele>
        <time>2016-09-14T13:23:56Z</time>
      </trkpt>
      <trkpt lat="43.5657" lon="6.20694">
        <ele>314.6</ele>
        <time>2016-09-14T13:24:10Z</time>
      </trkpt>
      <trkpt lat="43.56576" lon="6.20705">
        <ele>314.7</ele>
        <time>2016-09-14T13:24:21Z</time>
      </trkpt>
      <trkpt lat="43.56583" lon="6.20714">
        <ele>314.7</ele>
        <time>2016-09-14T13:24:28Z</time>
      </trkpt>
      <trkpt lat="43.56589" lon="6.20724">
        <ele>315.3</ele>
        <time>2016-09-14T13:24:36Z</time>
      </trkpt>
      <trkpt lat="43.56595" lon="6.20736">
        <ele>315.5</ele>
        <time>2016-09-14T13:24:45Z</time>
      </trkpt>
      <trkpt lat="43.566" lon="6.20748">
        <ele>315.5</ele>
        <time>2016-09-14T13:24:53Z</time>
      </trkpt>
      <trkpt lat="43.56604" lon="6.20759">
        <ele>315.5</ele>
        <time>2016-09-14T13:25:03Z</time>
      </trkpt>
      <trkpt lat="43.56609" lon="6.20771">
        <ele>316.2</ele>
        <time>2016-09-14T13:25:11Z</time>
      </trkpt>
      <trkpt lat="43.56612" lon="6.20782">
        <ele>316.8</ele>
        <time>2016-09-14T13:25:20Z</time>
      </trkpt>
      <trkpt lat="43.56619" lon="6.20792">
        <ele>317.2</ele>
        <time>2016-09-14T13:25:27Z</time>
      </trkpt>
      <trkpt lat="43.56623" lon="6.20804">
        <ele>317.8</ele>
        <time>2016-09-14T13:25:36Z</time>
      </trkpt>
      <trkpt lat="43.56627" lon="6.20816">
        <ele>319.1</ele>
        <time>2016-09-14T13:25:46Z</time>
      </trkpt>
      <trkpt lat="43.56627" lon="6.20829">
        <ele>319.7</ele>
        <time>2016-09-14T13:25:54Z</time>
      </trkpt>
      <trkpt lat="43.56622" lon="6.20842">
        <ele>318.9</ele>
        <time>2016-09-14T13:26:04Z</time>
      </trkpt>
      <trkpt lat="43.56619" lon="6.20854">
        <ele>317.3</ele>
        <time>2016-09-14T13:26:12Z</time>
      </trkpt>
      <trkpt lat="43.56617" lon="6.20866">
        <ele>316.8</ele>
        <time>2016-09-14T13:26:20Z</time>
      </trkpt>
      <trkpt lat="43.56614" lon="6.20878">
        <ele>316.5</ele>
        <time>2016-09-14T13:26:29Z</time>
      </trkpt>
      <trkpt lat="43.56615" lon="6.20892">
        <ele>315.5</ele>
        <time>2016-09-14T13:26:36Z</time>
      </trkpt>
      <trkpt lat="43.56618" lon="6.20905">
        <ele>315.7</ele>
        <time>2016-09-14T13:26:42Z</time>
      </trkpt>
      <trkpt lat="43.56621" lon="6.20917">
        <ele>316</ele>
        <time>2016-09-14T13:26:50Z</time>
      </trkpt>
      <trkpt lat="43.56625" lon="6.20929">
        <ele>316.2</ele>
        <time>2016-09-14T13:26:59Z</time>
      </trkpt>
      <trkpt lat="43.56623" lon="6.20942">
        <ele>317.3</ele>
        <time>2016-09-14T13:27:08Z</time>
      </trkpt>
      <trkpt lat="43.56619" lon="6.20953">
        <ele>316.6</ele>
        <time>2016-09-14T13:27:17Z</time>
      </trkpt>
      <trkpt lat="43.56617" lon="6.20967">
        <ele>318.6</ele>
        <time>2016-09-14T13:27:28Z</time>
      </trkpt>
      <trkpt lat="43.56614" lon="6.2098">
        <ele>318.8</ele>
        <time>2016-09-14T13:27:35Z</time>
      </trkpt>
      <trkpt lat="43.56617" lon="6.20993">
        <ele>318.7</ele>
        <time>2016-09-14T13:27:44Z</time>
      </trkpt>
      <trkpt lat="43.56616" lon="6.21006">
        <ele>318.2</ele>
        <time>2016-09-14T13:27:53Z</time>
      </trkpt>
      <trkpt lat="43.56615" lon="6.21018">
        <ele>317.2</ele>
        <time>2016-09-14T13:28:10Z</time>
      </trkpt>
      <trkpt lat="43.56613" lon="6.21031">
        <ele>316.7</ele>
        <time>2016-09-14T13:28:23Z</time>
      </trkpt>
      <trkpt lat="43.56609" lon="6.21043">
        <ele>315.1</ele>
        <time>2016-09-14T13:28:38Z</time>
      </trkpt>
      <trkpt lat="43.56606" lon="6.21055">
        <ele>313.9</ele>
        <time>2016-09-14T13:28:46Z</time>
      </trkpt>
      <trkpt lat="43.56605" lon="6.21068">
        <ele>313</ele>
        <time>2016-09-14T13:28:56Z</time>
      </trkpt>
      <trkpt lat="43.56607" lon="6.21081">
        <ele>312.2</ele>
        <time>2016-09-14T13:29:07Z</time>
      </trkpt>
      <trkpt lat="43.5661" lon="6.21094">
        <ele>311.2</ele>
        <time>2016-09-14T13:29:15Z</time>
      </trkpt>
      <trkpt lat="43.56615" lon="6.21106">
        <ele>310.4</ele>
        <time>2016-09-14T13:29:22Z</time>
      </trkpt>
      <trkpt lat="43.56617" lon="6.21119">
        <ele>309.5</ele>
        <time>2016-09-14T13:29:29Z</time>
      </trkpt>
      <trkpt lat="43.56618" lon="6.21132">
        <ele>307.6</ele>
        <time>2016-09-14T13:29:38Z</time>
      </trkpt>
      <trkpt lat="43.56621" lon="6.21144">
        <ele>306.4</ele>
        <time>2016-09-14T13:29:47Z</time>
      </trkpt>
      <trkpt lat="43.56622" lon="6.21157">
        <ele>305.6</ele>
        <time>2016-09-14T13:29:55Z</time>
      </trkpt>
      <trkpt lat="43.56624" lon="6.2117">
        <ele>304.8</ele>
        <time>2016-09-14T13:30:04Z</time>
      </trkpt>
      <trkpt lat="43.56625" lon="6.21184">
        <ele>303.8</ele>
        <time>2016-09-14T13:30:13Z</time>
      </trkpt>
      <trkpt lat="43.56621" lon="6.21196">
        <ele>303</ele>
        <time>2016-09-14T13:30:22Z</time>
      </trkpt>
      <trkpt lat="43.56621" lon="6.21209">
        <ele>302.3</ele>
        <time>2016-09-14T13:30:32Z</time>
      </trkpt>
      <trkpt lat="43.56619" lon="6.21222">
        <ele>301.8</ele>
        <time>2016-09-14T13:30:40Z</time>
      </trkpt>
      <trkpt lat="43.56618" lon="6.21234">
        <ele>301.7</ele>
        <time>2016-09-14T13:30:49Z</time>
      </trkpt>
      <trkpt lat="43.5662" lon="6.21246">
        <ele>301.8</ele>
        <time>2016-09-14T13:30:57Z</time>
      </trkpt>
      <trkpt lat="43.56619" lon="6.21259">
        <ele>301.7</ele>
        <time>2016-09-14T13:31:05Z</time>
      </trkpt>
      <trkpt lat="43.56615" lon="6.2127">
        <ele>301</ele>
        <time>2016-09-14T13:31:16Z</time>
      </trkpt>
      <trkpt lat="43.56618" lon="6.21283">
        <ele>300.4</ele>
        <time>2016-09-14T13:31:25Z</time>
      </trkpt>
      <trkpt lat="43.56618" lon="6.21296">
        <ele>300</ele>
        <time>2016-09-14T13:31:37Z</time>
      </trkpt>
      <trkpt lat="43.56618" lon="6.21308">
        <ele>299.9</ele>
        <time>2016-09-14T13:31:59Z</time>
      </trkpt>
      <trkpt lat="43.56616" lon="6.21321">
        <ele>299.6</ele>
        <time>2016-09-14T13:32:17Z</time>
      </trkpt>
      <trkpt lat="43.56612" lon="6.21332">
        <ele>298.9</ele>
        <time>2016-09-14T13:32:27Z</time>
      </trkpt>
      <trkpt lat="43.5661" lon="6.21346">
        <ele>297.1</ele>
        <time>2016-09-14T13:32:35Z</time>
      </trkpt>
      <trkpt lat="43.56607" lon="6.21359">
        <ele>295.9</ele>
        <time>2016-09-14T13:32:43Z</time>
      </trkpt>
      <trkpt lat="43.56604" lon="6.21371">
        <ele>294.8</ele>
        <time>2016-09-14T13:32:51Z</time>
      </trkpt>
      <trkpt lat="43.56597" lon="6.2138">
        <ele>294.4</ele>
        <time>2016-09-14T13:32:58Z</time>
      </trkpt>
      <trkpt lat="43.56589" lon="6.21389">
        <ele>293.4</ele>
        <time>2016-09-14T13:33:05Z</time>
      </trkpt>
      <trkpt lat="43.56582" lon="6.214">
        <ele>293.5</ele>
        <time>2016-09-14T13:33:12Z</time>
      </trkpt>
      <trkpt lat="43.56577" lon="6.21411">
        <ele>293.6</ele>
        <time>2016-09-14T13:33:20Z</time>
      </trkpt>
      <trkpt lat="43.5657" lon="6.21422">
        <ele>293.2</ele>
        <time>2016-09-14T13:33:27Z</time>
      </trkpt>
      <trkpt lat="43.56564" lon="6.21432">
        <ele>292.3</ele>
        <time>2016-09-14T13:33:34Z</time>
      </trkpt>
      <trkpt lat="43.56561" lon="6.21444">
        <ele>291</ele>
        <time>2016-09-14T13:33:41Z</time>
      </trkpt>
      <trkpt lat="43.5656" lon="6.21458">
        <ele>289.4</ele>
        <time>2016-09-14T13:33:50Z</time>
      </trkpt>
      <trkpt lat="43.56559" lon="6.2147">
        <ele>288.4</ele>
        <time>2016-09-14T13:33:58Z</time>
      </trkpt>
      <trkpt lat="43.56558" lon="6.21484">
        <ele>287.1</ele>
        <time>2016-09-14T13:34:05Z</time>
      </trkpt>
      <trkpt lat="43.56554" lon="6.21496">
        <ele>285.7</ele>
        <time>2016-09-14T13:34:13Z</time>
      </trkpt>
      <trkpt lat="43.56553" lon="6.21509">
        <ele>284.2</ele>
        <time>2016-09-14T13:34:21Z</time>
      </trkpt>
      <trkpt lat="43.56549" lon="6.21521">
        <ele>283.2</ele>
        <time>2016-09-14T13:34:29Z</time>
      </trkpt>
      <trkpt lat="43.56547" lon="6.21535">
        <ele>281.7</ele>
        <time>2016-09-14T13:34:36Z</time>
      </trkpt>
      <trkpt lat="43.56542" lon="6.21546">
        <ele>280.8</ele>
        <time>2016-09-14T13:34:43Z</time>
      </trkpt>
      <trkpt lat="43.56539" lon="6.21558">
        <ele>280.1</ele>
        <time>2016-09-14T13:34:50Z</time>
      </trkpt>
      <trkpt lat="43.56533" lon="6.21569">
        <ele>279.1</ele>
        <time>2016-09-14T13:34:58Z</time>
      </trkpt>
      <trkpt lat="43.56526" lon="6.21578">
        <ele>278.7</ele>
        <time>2016-09-14T13:35:05Z</time>
      </trkpt>
      <trkpt lat="43.56521" lon="6.21589">
        <ele>278.4</ele>
        <time>2016-09-14T13:35:13Z</time>
      </trkpt>
      <trkpt lat="43.56516" lon="6.21601">
        <ele>278.1</ele>
        <time>2016-09-14T13:35:22Z</time>
      </trkpt>
      <trkpt lat="43.56512" lon="6.21614">
        <ele>277.7</ele>
        <time>2016-09-14T13:35:30Z</time>
      </trkpt>
      <trkpt lat="43.56507" lon="6.21625">
        <ele>277.5</ele>
        <time>2016-09-14T13:35:38Z</time>
      </trkpt>
      <trkpt lat="43.56502" lon="6.21638">
        <ele>277.3</ele>
        <time>2016-09-14T13:35:47Z</time>
      </trkpt>
      <trkpt lat="43.56499" lon="6.2165">
        <ele>277.4</ele>
        <time>2016-09-14T13:35:55Z</time>
      </trkpt>
      <trkpt lat="43.56495" lon="6.21662">
        <ele>277.2</ele>
        <time>2016-09-14T13:36:03Z</time>
      </trkpt>
      <trkpt lat="43.56489" lon="6.21673">
        <ele>277.5</ele>
        <time>2016-09-14T13:36:12Z</time>
      </trkpt>
      <trkpt lat="43.56483" lon="6.21684">
        <ele>277</ele>
        <time>2016-09-14T13:36:20Z</time>
      </trkpt>
      <trkpt lat="43.56475" lon="6.21692">
        <ele>276.1</ele>
        <time>2016-09-14T13:36:27Z</time>
      </trkpt>
      <trkpt lat="43.56467" lon="6.217">
        <ele>275.7</ele>
        <time>2016-09-14T13:36:34Z</time>
      </trkpt>
      <trkpt lat="43.56463" lon="6.21711">
        <ele>274.9</ele>
        <time>2016-09-14T13:36:42Z</time>
      </trkpt>
      <trkpt lat="43.56459" lon="6.21723">
        <ele>274.5</ele>
        <time>2016-09-14T13:36:50Z</time>
      </trkpt>
      <trkpt lat="43.56456" lon="6.21736">
        <ele>273.7</ele>
        <time>2016-09-14T13:36:58Z</time>
      </trkpt>
      <trkpt lat="43.56452" lon="6.21748">
        <ele>273.2</ele>
        <time>2016-09-14T13:37:05Z</time>
      </trkpt>
      <trkpt lat="43.56447" lon="6.2176">
        <ele>273</ele>
        <time>2016-09-14T13:37:12Z</time>
      </trkpt>
      <trkpt lat="43.56441" lon="6.21771">
        <ele>272</ele>
        <time>2016-09-14T13:37:20Z</time>
      </trkpt>
      <trkpt lat="43.56434" lon="6.21781">
        <ele>270.6</ele>
        <time>2016-09-14T13:37:28Z</time>
      </trkpt>
      <trkpt lat="43.56431" lon="6.21792">
        <ele>269</ele>
        <time>2016-09-14T13:37:35Z</time>
      </trkpt>
      <trkpt lat="43.56425" lon="6.21803">
        <ele>267.9</ele>
        <time>2016-09-14T13:37:42Z</time>
      </trkpt>
      <trkpt lat="43.56418" lon="6.21812">
        <ele>267</ele>
        <time>2016-09-14T13:37:49Z</time>
      </trkpt>
      <trkpt lat="43.56413" lon="6.21822">
        <ele>266.8</ele>
        <time>2016-09-14T13:37:56Z</time>
      </trkpt>
      <trkpt lat="43.56408" lon="6.21833">
        <ele>266.3</ele>
        <time>2016-09-14T13:38:03Z</time>
      </trkpt>
      <trkpt lat="43.56401" lon="6.21844">
        <ele>266</ele>
        <time>2016-09-14T13:38:10Z</time>
      </trkpt>
      <trkpt lat="43.56396" lon="6.21855">
        <ele>265.9</ele>
        <time>2016-09-14T13:38:17Z</time>
      </trkpt>
      <trkpt lat="43.56391" lon="6.21865">
        <ele>266.3</ele>
        <time>2016-09-14T13:38:25Z</time>
      </trkpt>
      <trkpt lat="43.56387" lon="6.21878">
        <ele>267.1</ele>
        <time>2016-09-14T13:38:32Z</time>
      </trkpt>
      <trkpt lat="43.56383" lon="6.21889">
        <ele>267.9</ele>
        <time>2016-09-14T13:38:40Z</time>
      </trkpt>
      <trkpt lat="43.56378" lon="6.219">
        <ele>268</ele>
        <time>2016-09-14T13:38:47Z</time>
      </trkpt>
      <trkpt lat="43.56378" lon="6.21912">
        <ele>267.2</ele>
        <time>2016-09-14T13:38:56Z</time>
      </trkpt>
      <trkpt lat="43.56382" lon="6.21925">
        <ele>266.4</ele>
        <time>2016-09-14T13:39:03Z</time>
      </trkpt>
      <trkpt lat="43.56387" lon="6.21936">
        <ele>265.7</ele>
        <time>2016-09-14T13:39:10Z</time>
      </trkpt>
      <trkpt lat="43.56393" lon="6.21949">
        <ele>264.5</ele>
        <time>2016-09-14T13:39:18Z</time>
      </trkpt>
      <trkpt lat="43.564" lon="6.21957">
        <ele>263.6</ele>
        <time>2016-09-14T13:39:25Z</time>
      </trkpt>
      <trkpt lat="43.56405" lon="6.21969">
        <ele>261.7</ele>
        <time>2016-09-14T13:39:34Z</time>
      </trkpt>
      <trkpt lat="43.56409" lon="6.21981">
        <ele>260.3</ele>
        <time>2016-09-14T13:39:41Z</time>
      </trkpt>
      <trkpt lat="43.56413" lon="6.21991">
        <ele>258.9</ele>
        <time>2016-09-14T13:39:49Z</time>
      </trkpt>
      <trkpt lat="43.56417" lon="6.22002">
        <ele>257.4</ele>
        <time>2016-09-14T13:39:59Z</time>
      </trkpt>
      <trkpt lat="43.56424" lon="6.22013">
        <ele>256.8</ele>
        <time>2016-09-14T13:40:07Z</time>
      </trkpt>
      <trkpt lat="43.56428" lon="6.22023">
        <ele>255.9</ele>
        <time>2016-09-14T13:40:14Z</time>
      </trkpt>
      <trkpt lat="43.56431" lon="6.22037">
        <ele>254.6</ele>
        <time>2016-09-14T13:40:22Z</time>
      </trkpt>
      <trkpt lat="43.56432" lon="6.22049">
        <ele>253.8</ele>
        <time>2016-09-14T13:40:29Z</time>
      </trkpt>
      <trkpt lat="43.56433" lon="6.22063">
        <ele>253.2</ele>
        <time>2016-09-14T13:40:37Z</time>
      </trkpt>
      <trkpt lat="43.5643" lon="6.22076">
        <ele>252.3</ele>
        <time>2016-09-14T13:40:46Z</time>
      </trkpt>
      <trkpt lat="43.56425" lon="6.22087">
        <ele>251.5</ele>
        <time>2016-09-14T13:40:53Z</time>
      </trkpt>
      <trkpt lat="43.56419" lon="6.22097">
        <ele>251.3</ele>
        <time>2016-09-14T13:41:00Z</time>
      </trkpt>
      <trkpt lat="43.56415" lon="6.22109">
        <ele>250.7</ele>
        <time>2016-09-14T13:41:10Z</time>
      </trkpt>
      <trkpt lat="43.56416" lon="6.22122">
        <ele>249.8</ele>
        <time>2016-09-14T13:41:18Z</time>
      </trkpt>
      <trkpt lat="43.56418" lon="6.22136">
        <ele>249.1</ele>
        <time>2016-09-14T13:41:28Z</time>
      </trkpt>
      <trkpt lat="43.56419" lon="6.22149">
        <ele>247.9</ele>
        <time>2016-09-14T13:41:37Z</time>
      </trkpt>
      <trkpt lat="43.56421" lon="6.22162">
        <ele>246.9</ele>
        <time>2016-09-14T13:41:45Z</time>
      </trkpt>
      <trkpt lat="43.56422" lon="6.22175">
        <ele>245.6</ele>
        <time>2016-09-14T13:41:54Z</time>
      </trkpt>
      <trkpt lat="43.56425" lon="6.22188">
        <ele>244.7</ele>
        <time>2016-09-14T13:42:03Z</time>
      </trkpt>
      <trkpt lat="43.56426" lon="6.22201">
        <ele>244.1</ele>
        <time>2016-09-14T13:42:12Z</time>
      </trkpt>
      <trkpt lat="43.56426" lon="6.22214">
        <ele>243.8</ele>
        <time>2016-09-14T13:42:21Z</time>
      </trkpt>
      <trkpt lat="43.56426" lon="6.22228">
        <ele>243.8</ele>
        <time>2016-09-14T13:42:29Z</time>
      </trkpt>
      <trkpt lat="43.5642" lon="6.22239">
        <ele>243.4</ele>
        <time>2016-09-14T13:42:37Z</time>
      </trkpt>
      <trkpt lat="43.56416" lon="6.22252">
        <ele>242.9</ele>
        <time>2016-09-14T13:42:45Z</time>
      </trkpt>
      <trkpt lat="43.56416" lon="6.22265">
        <ele>242.3</ele>
        <time>2016-09-14T13:42:53Z</time>
      </trkpt>
      <trkpt lat="43.5642" lon="6.22277">
        <ele>241.9</ele>
        <time>2016-09-14T13:43:00Z</time>
      </trkpt>
      <trkpt lat="43.56425" lon="6.22288">
        <ele>241</ele>
        <time>2016-09-14T13:43:08Z</time>
      </trkpt>
      <trkpt lat="43.5643" lon="6.22298">
        <ele>239.9</ele>
        <time>2016-09-14T13:43:16Z</time>
      </trkpt>
      <trkpt lat="43.56434" lon="6.22311">
        <ele>239.1</ele>
        <time>2016-09-14T13:43:31Z</time>
      </trkpt>
      <trkpt lat="43.56437" lon="6.22324">
        <ele>238.3</ele>
        <time>2016-09-14T13:43:39Z</time>
      </trkpt>
      <trkpt lat="43.56442" lon="6.22336">
        <ele>237.4</ele>
        <time>2016-09-14T13:43:48Z</time>
      </trkpt>
      <trkpt lat="43.56448" lon="6.22345">
        <ele>237.2</ele>
        <time>2016-09-14T13:43:56Z</time>
      </trkpt>
      <trkpt lat="43.56454" lon="6.22356">
        <ele>236.6</ele>
        <time>2016-09-14T13:44:08Z</time>
      </trkpt>
      <trkpt lat="43.56461" lon="6.22365">
        <ele>236.2</ele>
        <time>2016-09-14T13:44:16Z</time>
      </trkpt>
      <trkpt lat="43.56465" lon="6.22376">
        <ele>235.3</ele>
        <time>2016-09-14T13:44:23Z</time>
      </trkpt>
      <trkpt lat="43.56467" lon="6.22389">
        <ele>234.2</ele>
        <time>2016-09-14T13:44:31Z</time>
      </trkpt>
      <trkpt lat="43.56471" lon="6.22402">
        <ele>233.8</ele>
        <time>2016-09-14T13:44:39Z</time>
      </trkpt>
      <trkpt lat="43.56473" lon="6.22414">
        <ele>232.5</ele>
        <time>2016-09-14T13:44:48Z</time>
      </trkpt>
      <trkpt lat="43.56474" lon="6.22428">
        <ele>231.3</ele>
        <time>2016-09-14T13:45:01Z</time>
      </trkpt>
      <trkpt lat="43.56478" lon="6.22439">
        <ele>229.2</ele>
        <time>2016-09-14T13:45:11Z</time>
      </trkpt>
      <trkpt lat="43.56487" lon="6.22444">
        <ele>226.9</ele>
        <time>2016-09-14T13:45:22Z</time>
      </trkpt>
      <trkpt lat="43.56497" lon="6.22447">
        <ele>225.9</ele>
        <time>2016-09-14T13:45:33Z</time>
      </trkpt>
      <trkpt lat="43.56508" lon="6.22449">
        <ele>224.7</ele>
        <time>2016-09-14T13:45:43Z</time>
      </trkpt>
      <trkpt lat="43.56517" lon="6.22457">
        <ele>224.3</ele>
        <time>2016-09-14T13:45:51Z</time>
      </trkpt>
      <trkpt lat="43.56522" lon="6.22468">
        <ele>223.5</ele>
        <time>2016-09-14T13:45:59Z</time>
      </trkpt>
      <trkpt lat="43.56518" lon="6.2248">
        <ele>223.2</ele>
        <time>2016-09-14T13:46:09Z</time>
      </trkpt>
      <trkpt lat="43.56514" lon="6.22492">
        <ele>223.3</ele>
        <time>2016-09-14T13:46:18Z</time>
      </trkpt>
      <trkpt lat="43.56513" lon="6.22505">
        <ele>223.4</ele>
        <time>2016-09-14T13:46:28Z</time>
      </trkpt>
      <trkpt lat="43.56519" lon="6.22517">
        <ele>223.8</ele>
        <time>2016-09-14T13:46:37Z</time>
      </trkpt>
      <trkpt lat="43.56525" lon="6.22526">
        <ele>224.5</ele>
        <time>2016-09-14T13:46:49Z</time>
      </trkpt>
      <trkpt lat="43.56534" lon="6.22532">
        <ele>224.1</ele>
        <time>2016-09-14T13:46:59Z</time>
      </trkpt>
      <trkpt lat="43.56533" lon="6.22545">
        <ele>223.1</ele>
        <time>2016-09-14T13:51:07Z</time>
      </trkpt>
      <trkpt lat="43.56531" lon="6.22558">
        <ele>223.3</ele>
        <time>2016-09-14T13:51:15Z</time>
      </trkpt>
      <trkpt lat="43.5653" lon="6.22571">
        <ele>223.4</ele>
        <time>2016-09-14T13:51:25Z</time>
      </trkpt>
      <trkpt lat="43.56529" lon="6.22584">
        <ele>223.5</ele>
        <time>2016-09-14T13:51:33Z</time>
      </trkpt>
      <trkpt lat="43.56528" lon="6.22598">
        <ele>223.6</ele>
        <time>2016-09-14T13:51:41Z</time>
      </trkpt>
      <trkpt lat="43.56526" lon="6.22611">
        <ele>223.8</ele>
        <time>2016-09-14T13:51:49Z</time>
      </trkpt>
      <trkpt lat="43.56524" lon="6.22624">
        <ele>223.7</ele>
        <time>2016-09-14T13:51:58Z</time>
      </trkpt>
      <trkpt lat="43.56523" lon="6.22638">
        <ele>223.6</ele>
        <time>2016-09-14T13:52:06Z</time>
      </trkpt>
      <trkpt lat="43.56525" lon="6.22651">
        <ele>223.8</ele>
        <time>2016-09-14T13:52:14Z</time>
      </trkpt>
      <trkpt lat="43.56527" lon="6.22664">
        <ele>224</ele>
        <time>2016-09-14T13:52:22Z</time>
      </trkpt>
      <trkpt lat="43.56529" lon="6.22677">
        <ele>223.9</ele>
        <time>2016-09-14T13:52:31Z</time>
      </trkpt>
      <trkpt lat="43.56529" lon="6.2269">
        <ele>224</ele>
        <time>2016-09-14T13:52:39Z</time>
      </trkpt>
      <trkpt lat="43.5653" lon="6.22704">
        <ele>224</ele>
        <time>2016-09-14T13:52:47Z</time>
      </trkpt>
      <trkpt lat="43.56533" lon="6.22716">
        <ele>223.7</ele>
        <time>2016-09-14T13:52:54Z</time>
      </trkpt>
      <trkpt lat="43.56533" lon="6.2273">
        <ele>223.5</ele>
        <time>2016-09-14T13:53:02Z</time>
      </trkpt>
      <trkpt lat="43.56533" lon="6.22744">
        <ele>223.2</ele>
        <time>2016-09-14T13:53:10Z</time>
      </trkpt>
      <trkpt lat="43.56532" lon="6.22758">
        <ele>223.2</ele>
        <time>2016-09-14T13:53:18Z</time>
      </trkpt>
      <trkpt lat="43.56533" lon="6.22771">
        <ele>223.2</ele>
        <time>2016-09-14T13:53:24Z</time>
      </trkpt>
      <trkpt lat="43.56534" lon="6.22783">
        <ele>223</ele>
        <time>2016-09-14T13:53:31Z</time>
      </trkpt>
      <trkpt lat="43.56537" lon="6.22795">
        <ele>222.9</ele>
        <time>2016-09-14T13:53:39Z</time>
      </trkpt>
      <trkpt lat="43.56539" lon="6.22808">
        <ele>223.1</ele>
        <time>2016-09-14T13:53:46Z</time>
      </trkpt>
      <trkpt lat="43.56546" lon="6.22816">
        <ele>224.1</ele>
        <time>2016-09-14T13:54:00Z</time>
      </trkpt>
      <trkpt lat="43.56555" lon="6.22815">
        <ele>225.4</ele>
        <time>2016-09-14T13:54:08Z</time>
      </trkpt>
      <trkpt lat="43.56565" lon="6.22817">
        <ele>227</ele>
        <time>2016-09-14T13:54:17Z</time>
      </trkpt>
      <trkpt lat="43.56574" lon="6.22816">
        <ele>227.6</ele>
        <time>2016-09-14T13:54:25Z</time>
      </trkpt>
      <trkpt lat="43.56584" lon="6.22816">
        <ele>228.6</ele>
        <time>2016-09-14T13:54:35Z</time>
      </trkpt>
      <trkpt lat="43.56594" lon="6.22812">
        <ele>229.1</ele>
        <time>2016-09-14T13:54:44Z</time>
      </trkpt>
      <trkpt lat="43.56604" lon="6.22811">
        <ele>229.6</ele>
        <time>2016-09-14T13:54:53Z</time>
      </trkpt>
      <trkpt lat="43.56613" lon="6.22809">
        <ele>230</ele>
        <time>2016-09-14T13:55:03Z</time>
      </trkpt>
      <trkpt lat="43.56621" lon="6.228">
        <ele>230.1</ele>
        <time>2016-09-14T13:55:12Z</time>
      </trkpt>
      <trkpt lat="43.56627" lon="6.22791">
        <ele>230.6</ele>
        <time>2016-09-14T13:55:20Z</time>
      </trkpt>
      <trkpt lat="43.56632" lon="6.2278">
        <ele>230.9</ele>
        <time>2016-09-14T13:55:27Z</time>
      </trkpt>
      <trkpt lat="43.56638" lon="6.22769">
        <ele>231.6</ele>
        <time>2016-09-14T13:55:35Z</time>
      </trkpt>
      <trkpt lat="43.56642" lon="6.22758">
        <ele>232.1</ele>
        <time>2016-09-14T13:55:43Z</time>
      </trkpt>
      <trkpt lat="43.56647" lon="6.22746">
        <ele>232.8</ele>
        <time>2016-09-14T13:55:50Z</time>
      </trkpt>
      <trkpt lat="43.56652" lon="6.22735">
        <ele>233.6</ele>
        <time>2016-09-14T13:55:59Z</time>
      </trkpt>
      <trkpt lat="43.56657" lon="6.22724">
        <ele>234.2</ele>
        <time>2016-09-14T13:56:07Z</time>
      </trkpt>
      <trkpt lat="43.56662" lon="6.22714">
        <ele>234.6</ele>
        <time>2016-09-14T13:56:14Z</time>
      </trkpt>
      <trkpt lat="43.56667" lon="6.22701">
        <ele>235.3</ele>
        <time>2016-09-14T13:56:22Z</time>
      </trkpt>
      <trkpt lat="43.56671" lon="6.22688">
        <ele>235.6</ele>
        <time>2016-09-14T13:56:29Z</time>
      </trkpt>
      <trkpt lat="43.56672" lon="6.22675">
        <ele>236.2</ele>
        <time>2016-09-14T13:56:36Z</time>
      </trkpt>
      <trkpt lat="43.56672" lon="6.22662">
        <ele>236.8</ele>
        <time>2016-09-14T13:56:43Z</time>
      </trkpt>
      <trkpt lat="43.56673" lon="6.22649">
        <ele>237.1</ele>
        <time>2016-09-14T13:56:49Z</time>
      </trkpt>
      <trkpt lat="43.56672" lon="6.22635">
        <ele>237.9</ele>
        <time>2016-09-14T13:56:56Z</time>
      </trkpt>
      <trkpt lat="43.5667" lon="6.22622">
        <ele>238.4</ele>
        <time>2016-09-14T13:57:03Z</time>
      </trkpt>
      <trkpt lat="43.56667" lon="6.22609">
        <ele>239</ele>
        <time>2016-09-14T13:57:10Z</time>
      </trkpt>
      <trkpt lat="43.56665" lon="6.22597">
        <ele>239.7</ele>
        <time>2016-09-14T13:57:17Z</time>
      </trkpt>
      <trkpt lat="43.56665" lon="6.22583">
        <ele>240.3</ele>
        <time>2016-09-14T13:57:25Z</time>
      </trkpt>
      <trkpt lat="43.56663" lon="6.22569">
        <ele>241</ele>
        <time>2016-09-14T13:57:33Z</time>
      </trkpt>
      <trkpt lat="43.56659" lon="6.22556">
        <ele>241.3</ele>
        <time>2016-09-14T13:57:40Z</time>
      </trkpt>
      <trkpt lat="43.56652" lon="6.22546">
        <ele>241.8</ele>
        <time>2016-09-14T13:57:48Z</time>
      </trkpt>
      <trkpt lat="43.56646" lon="6.22535">
        <ele>242.6</ele>
        <time>2016-09-14T13:57:59Z</time>
      </trkpt>
      <trkpt lat="43.56641" lon="6.22523">
        <ele>243.7</ele>
        <time>2016-09-14T13:58:09Z</time>
      </trkpt>
      <trkpt lat="43.5664" lon="6.2251">
        <ele>244.7</ele>
        <time>2016-09-14T13:58:17Z</time>
      </trkpt>
      <trkpt lat="43.56637" lon="6.22498">
        <ele>245.2</ele>
        <time>2016-09-14T13:58:25Z</time>
      </trkpt>
      <trkpt lat="43.56635" lon="6.22486">
        <ele>245.3</ele>
        <time>2016-09-14T13:58:33Z</time>
      </trkpt>
      <trkpt lat="43.56635" lon="6.22473">
        <ele>246.6</ele>
        <time>2016-09-14T13:59:04Z</time>
      </trkpt>
      <trkpt lat="43.56631" lon="6.22461">
        <ele>247.3</ele>
        <time>2016-09-14T13:59:54Z</time>
      </trkpt>
      <trkpt lat="43.5663" lon="6.22447">
        <ele>248.2</ele>
        <time>2016-09-14T14:00:06Z</time>
      </trkpt>
      <trkpt lat="43.56628" lon="6.22435">
        <ele>249.2</ele>
        <time>2016-09-14T14:00:15Z</time>
      </trkpt>
      <trkpt lat="43.56627" lon="6.22421">
        <ele>250.3</ele>
        <time>2016-09-14T14:00:25Z</time>
      </trkpt>
      <trkpt lat="43.56628" lon="6.22408">
        <ele>251.2</ele>
        <time>2016-09-14T14:00:35Z</time>
      </trkpt>
      <trkpt lat="43.56628" lon="6.22394">
        <ele>252.4</ele>
        <time>2016-09-14T14:00:45Z</time>
      </trkpt>
      <trkpt lat="43.56629" lon="6.22381">
        <ele>253.4</ele>
        <time>2016-09-14T14:00:54Z</time>
      </trkpt>
      <trkpt lat="43.56627" lon="6.22368">
        <ele>254.1</ele>
        <time>2016-09-14T14:01:03Z</time>
      </trkpt>
      <trkpt lat="43.56625" lon="6.22355">
        <ele>255.1</ele>
        <time>2016-09-14T14:01:12Z</time>
      </trkpt>
      <trkpt lat="43.56623" lon="6.22342">
        <ele>255.4</ele>
        <time>2016-09-14T14:01:19Z</time>
      </trkpt>
      <trkpt lat="43.56625" lon="6.22329">
        <ele>255.7</ele>
        <time>2016-09-14T14:01:26Z</time>
      </trkpt>
      <trkpt lat="43.56629" lon="6.22317">
        <ele>256.3</ele>
        <time>2016-09-14T14:01:34Z</time>
      </trkpt>
      <trkpt lat="43.56624" lon="6.22306">
        <ele>257.4</ele>
        <time>2016-09-14T14:02:20Z</time>
      </trkpt>
      <trkpt lat="43.56619" lon="6.22296">
        <ele>255.8</ele>
        <time>2016-09-14T14:02:39Z</time>
      </trkpt>
      <trkpt lat="43.56627" lon="6.22301">
        <ele>256.2</ele>
        <time>2016-09-14T14:03:14Z</time>
      </trkpt>
      <trkpt lat="43.56638" lon="6.22301">
        <ele>256.8</ele>
        <time>2016-09-14T14:03:29Z</time>
      </trkpt>
      <trkpt lat="43.56641" lon="6.22289">
        <ele>257.8</ele>
        <time>2016-09-14T14:03:40Z</time>
      </trkpt>
      <trkpt lat="43.56646" lon="6.22277">
        <ele>258.9</ele>
        <time>2016-09-14T14:03:49Z</time>
      </trkpt>
      <trkpt lat="43.56649" lon="6.22265">
        <ele>260.4</ele>
        <time>2016-09-14T14:03:58Z</time>
      </trkpt>
      <trkpt lat="43.56654" lon="6.22253">
        <ele>260.8</ele>
        <time>2016-09-14T14:04:08Z</time>
      </trkpt>
      <trkpt lat="43.56657" lon="6.22241">
        <ele>263.1</ele>
        <time>2016-09-14T14:04:20Z</time>
      </trkpt>
      <trkpt lat="43.5666" lon="6.22228">
        <ele>265.2</ele>
        <time>2016-09-14T14:04:31Z</time>
      </trkpt>
      <trkpt lat="43.56663" lon="6.22215">
        <ele>266.4</ele>
        <time>2016-09-14T14:04:58Z</time>
      </trkpt>
      <trkpt lat="43.56669" lon="6.22204">
        <ele>268.7</ele>
        <time>2016-09-14T14:05:09Z</time>
      </trkpt>
      <trkpt lat="43.56674" lon="6.22193">
        <ele>270.4</ele>
        <time>2016-09-14T14:05:18Z</time>
      </trkpt>
      <trkpt lat="43.5668" lon="6.22182">
        <ele>272</ele>
        <time>2016-09-14T14:05:28Z</time>
      </trkpt>
      <trkpt lat="43.56684" lon="6.2217">
        <ele>273.1</ele>
        <time>2016-09-14T14:05:36Z</time>
      </trkpt>
      <trkpt lat="43.56689" lon="6.22157">
        <ele>273.7</ele>
        <time>2016-09-14T14:05:45Z</time>
      </trkpt>
      <trkpt lat="43.56696" lon="6.22148">
        <ele>274.1</ele>
        <time>2016-09-14T14:05:52Z</time>
      </trkpt>
      <trkpt lat="43.56703" lon="6.22139">
        <ele>273.7</ele>
        <time>2016-09-14T14:06:02Z</time>
      </trkpt>
      <trkpt lat="43.5671" lon="6.22129">
        <ele>272.7</ele>
        <time>2016-09-14T14:06:12Z</time>
      </trkpt>
      <trkpt lat="43.56717" lon="6.22119">
        <ele>271.7</ele>
        <time>2016-09-14T14:06:21Z</time>
      </trkpt>
      <trkpt lat="43.56721" lon="6.22108">
        <ele>270.3</ele>
        <time>2016-09-14T14:06:31Z</time>
      </trkpt>
      <trkpt lat="43.56727" lon="6.22098">
        <ele>269.2</ele>
        <time>2016-09-14T14:06:40Z</time>
      </trkpt>
      <trkpt lat="43.56732" lon="6.22086">
        <ele>268</ele>
        <time>2016-09-14T14:06:49Z</time>
      </trkpt>
      <trkpt lat="43.5674" lon="6.22079">
        <ele>266.4</ele>
        <time>2016-09-14T14:06:56Z</time>
      </trkpt>
      <trkpt lat="43.56747" lon="6.2207">
        <ele>265.7</ele>
        <time>2016-09-14T14:07:06Z</time>
      </trkpt>
      <trkpt lat="43.56756" lon="6.22069">
        <ele>265.1</ele>
        <time>2016-09-14T14:07:16Z</time>
      </trkpt>
      <trkpt lat="43.56764" lon="6.22061">
        <ele>264.7</ele>
        <time>2016-09-14T14:07:28Z</time>
      </trkpt>
      <trkpt lat="43.56771" lon="6.22053">
        <ele>263.5</ele>
        <time>2016-09-14T14:07:40Z</time>
      </trkpt>
      <trkpt lat="43.5678" lon="6.22048">
        <ele>262.4</ele>
        <time>2016-09-14T14:07:51Z</time>
      </trkpt>
      <trkpt lat="43.56788" lon="6.22042">
        <ele>261.4</ele>
        <time>2016-09-14T14:08:02Z</time>
      </trkpt>
      <trkpt lat="43.56797" lon="6.22036">
        <ele>260.1</ele>
        <time>2016-09-14T14:08:15Z</time>
      </trkpt>
      <trkpt lat="43.56805" lon="6.2203">
        <ele>258.9</ele>
        <time>2016-09-14T14:08:25Z</time>
      </trkpt>
      <trkpt lat="43.56814" lon="6.22029">
        <ele>257.1</ele>
        <time>2016-09-14T14:08:39Z</time>
      </trkpt>
      <trkpt lat="43.56822" lon="6.22021">
        <ele>256.1</ele>
        <time>2016-09-14T14:08:48Z</time>
      </trkpt>
      <trkpt lat="43.56829" lon="6.22013">
        <ele>254.9</ele>
        <time>2016-09-14T14:08:56Z</time>
      </trkpt>
      <trkpt lat="43.56839" lon="6.2201">
        <ele>253.8</ele>
        <time>2016-09-14T14:09:04Z</time>
      </trkpt>
      <trkpt lat="43.56848" lon="6.22007">
        <ele>252.5</ele>
        <time>2016-09-14T14:09:13Z</time>
      </trkpt>
      <trkpt lat="43.56856" lon="6.22003">
        <ele>251.2</ele>
        <time>2016-09-14T14:09:22Z</time>
      </trkpt>
      <trkpt lat="43.56863" lon="6.21995">
        <ele>249.8</ele>
        <time>2016-09-14T14:09:33Z</time>
      </trkpt>
      <trkpt lat="43.5687" lon="6.21985">
        <ele>247.4</ele>
        <time>2016-09-14T14:09:45Z</time>
      </trkpt>
      <trkpt lat="43.56874" lon="6.21974">
        <ele>245.1</ele>
        <time>2016-09-14T14:09:56Z</time>
      </trkpt>
      <trkpt lat="43.56882" lon="6.21968">
        <ele>244.1</ele>
        <time>2016-09-14T14:10:08Z</time>
      </trkpt>
      <trkpt lat="43.5689" lon="6.21961">
        <ele>243.8</ele>
        <time>2016-09-14T14:10:18Z</time>
      </trkpt>
      <trkpt lat="43.56898" lon="6.21954">
        <ele>244.7</ele>
        <time>2016-09-14T14:10:33Z</time>
      </trkpt>
      <trkpt lat="43.56905" lon="6.21944">
        <ele>245.5</ele>
        <time>2016-09-14T14:10:44Z</time>
      </trkpt>
      <trkpt lat="43.56912" lon="6.21936">
        <ele>246.6</ele>
        <time>2016-09-14T14:10:54Z</time>
      </trkpt>
      <trkpt lat="43.5692" lon="6.21929">
        <ele>249.1</ele>
        <time>2016-09-14T14:11:07Z</time>
      </trkpt>
      <trkpt lat="43.56927" lon="6.2192">
        <ele>251.3</ele>
        <time>2016-09-14T14:11:25Z</time>
      </trkpt>
      <trkpt lat="43.56936" lon="6.21913">
        <ele>252.3</ele>
        <time>2016-09-14T14:11:37Z</time>
      </trkpt>
      <trkpt lat="43.56944" lon="6.21906">
        <ele>253.3</ele>
        <time>2016-09-14T14:11:45Z</time>
      </trkpt>
      <trkpt lat="43.56952" lon="6.219">
        <ele>253.8</ele>
        <time>2016-09-14T14:11:51Z</time>
      </trkpt>
      <trkpt lat="43.56962" lon="6.219">
        <ele>254</ele>
        <time>2016-09-14T14:12:00Z</time>
      </trkpt>
      <trkpt lat="43.56971" lon="6.21894">
        <ele>254.6</ele>
        <time>2016-09-14T14:12:08Z</time>
      </trkpt>
      <trkpt lat="43.56981" lon="6.21892">
        <ele>254.9</ele>
        <time>2016-09-14T14:12:18Z</time>
      </trkpt>
      <trkpt lat="43.56989" lon="6.21886">
        <ele>254.2</ele>
        <time>2016-09-14T14:12:27Z</time>
      </trkpt>
      <trkpt lat="43.56998" lon="6.21881">
        <ele>254.4</ele>
        <time>2016-09-14T14:12:42Z</time>
      </trkpt>
      <trkpt lat="43.57006" lon="6.21874">
        <ele>254.5</ele>
        <time>2016-09-14T14:12:50Z</time>
      </trkpt>
      <trkpt lat="43.57014" lon="6.21866">
        <ele>254.5</ele>
        <time>2016-09-14T14:13:01Z</time>
      </trkpt>
      <trkpt lat="43.57023" lon="6.21862">
        <ele>255.6</ele>
        <time>2016-09-14T14:13:11Z</time>
      </trkpt>
      <trkpt lat="43.57033" lon="6.21861">
        <ele>256.4</ele>
        <time>2016-09-14T14:13:21Z</time>
      </trkpt>
      <trkpt lat="43.57043" lon="6.21861">
        <ele>257.2</ele>
        <time>2016-09-14T14:13:29Z</time>
      </trkpt>
      <trkpt lat="43.57052" lon="6.21862">
        <ele>257.4</ele>
        <time>2016-09-14T14:13:37Z</time>
      </trkpt>
      <trkpt lat="43.57061" lon="6.21866">
        <ele>258.4</ele>
        <time>2016-09-14T14:13:47Z</time>
      </trkpt>
      <trkpt lat="43.5707" lon="6.21869">
        <ele>260.1</ele>
        <time>2016-09-14T14:13:56Z</time>
      </trkpt>
      <trkpt lat="43.5708" lon="6.2187">
        <ele>261.3</ele>
        <time>2016-09-14T14:14:07Z</time>
      </trkpt>
      <trkpt lat="43.57088" lon="6.21864">
        <ele>261.7</ele>
        <time>2016-09-14T14:14:46Z</time>
      </trkpt>
      <trkpt lat="43.5709" lon="6.21851">
        <ele>261.6</ele>
        <time>2016-09-14T14:18:26Z</time>
      </trkpt>
      <trkpt lat="43.57093" lon="6.21839">
        <ele>261.6</ele>
        <time>2016-09-14T14:18:35Z</time>
      </trkpt>
      <trkpt lat="43.57095" lon="6.21825">
        <ele>261.7</ele>
        <time>2016-09-14T14:18:44Z</time>
      </trkpt>
      <trkpt lat="43.57098" lon="6.21813">
        <ele>261.9</ele>
        <time>2016-09-14T14:18:53Z</time>
      </trkpt>
      <trkpt lat="43.57099" lon="6.218">
        <ele>262</ele>
        <time>2016-09-14T14:19:02Z</time>
      </trkpt>
      <trkpt lat="43.57101" lon="6.21787">
        <ele>262.3</ele>
        <time>2016-09-14T14:19:11Z</time>
      </trkpt>
      <trkpt lat="43.57103" lon="6.21774">
        <ele>262.2</ele>
        <time>2016-09-14T14:19:22Z</time>
      </trkpt>
      <trkpt lat="43.57104" lon="6.21761">
        <ele>262.7</ele>
        <time>2016-09-14T14:19:32Z</time>
      </trkpt>
      <trkpt lat="43.57105" lon="6.21748">
        <ele>263.2</ele>
        <time>2016-09-14T14:19:41Z</time>
      </trkpt>
      <trkpt lat="43.57108" lon="6.21736">
        <ele>263.8</ele>
        <time>2016-09-14T14:19:52Z</time>
      </trkpt>
      <trkpt lat="43.57108" lon="6.21723">
        <ele>264.1</ele>
        <time>2016-09-14T14:20:00Z</time>
      </trkpt>
      <trkpt lat="43.5711" lon="6.2171">
        <ele>264.7</ele>
        <time>2016-09-14T14:20:07Z</time>
      </trkpt>
      <trkpt lat="43.57113" lon="6.21697">
        <ele>265.5</ele>
        <time>2016-09-14T14:20:15Z</time>
      </trkpt>
      <trkpt lat="43.57117" lon="6.21685">
        <ele>265.9</ele>
        <time>2016-09-14T14:20:22Z</time>
      </trkpt>
      <trkpt lat="43.57123" lon="6.21675">
        <ele>266.4</ele>
        <time>2016-09-14T14:20:30Z</time>
      </trkpt>
      <trkpt lat="43.57129" lon="6.21665">
        <ele>267.2</ele>
        <time>2016-09-14T14:20:38Z</time>
      </trkpt>
      <trkpt lat="43.57134" lon="6.21654">
        <ele>267.9</ele>
        <time>2016-09-14T14:20:47Z</time>
      </trkpt>
      <trkpt lat="43.57138" lon="6.21641">
        <ele>268.6</ele>
        <time>2016-09-14T14:20:55Z</time>
      </trkpt>
      <trkpt lat="43.57138" lon="6.21629">
        <ele>268.8</ele>
        <time>2016-09-14T14:21:01Z</time>
      </trkpt>
      <trkpt lat="43.57135" lon="6.21616">
        <ele>269</ele>
        <time>2016-09-14T14:21:11Z</time>
      </trkpt>
      <trkpt lat="43.5713" lon="6.21605">
        <ele>269.1</ele>
        <time>2016-09-14T14:21:19Z</time>
      </trkpt>
      <trkpt lat="43.57124" lon="6.21594">
        <ele>268.7</ele>
        <time>2016-09-14T14:21:27Z</time>
      </trkpt>
      <trkpt lat="43.57123" lon="6.21581">
        <ele>268.2</ele>
        <time>2016-09-14T14:21:35Z</time>
      </trkpt>
      <trkpt lat="43.57123" lon="6.21569">
        <ele>267.7</ele>
        <time>2016-09-14T14:21:41Z</time>
      </trkpt>
      <trkpt lat="43.57121" lon="6.21556">
        <ele>266.8</ele>
        <time>2016-09-14T14:21:50Z</time>
      </trkpt>
      <trkpt lat="43.57117" lon="6.21544">
        <ele>266.5</ele>
        <time>2016-09-14T14:21:57Z</time>
      </trkpt>
      <trkpt lat="43.57116" lon="6.2153">
        <ele>266.1</ele>
        <time>2016-09-14T14:22:04Z</time>
      </trkpt>
      <trkpt lat="43.57114" lon="6.21518">
        <ele>265.5</ele>
        <time>2016-09-14T14:22:11Z</time>
      </trkpt>
      <trkpt lat="43.57113" lon="6.21505">
        <ele>265.6</ele>
        <time>2016-09-14T14:22:18Z</time>
      </trkpt>
      <trkpt lat="43.5711" lon="6.21493">
        <ele>265.6</ele>
        <time>2016-09-14T14:22:26Z</time>
      </trkpt>
      <trkpt lat="43.57106" lon="6.21481">
        <ele>265.7</ele>
        <time>2016-09-14T14:22:34Z</time>
      </trkpt>
      <trkpt lat="43.57102" lon="6.21469">
        <ele>266</ele>
        <time>2016-09-14T14:22:42Z</time>
      </trkpt>
      <trkpt lat="43.57098" lon="6.21459">
        <ele>266.6</ele>
        <time>2016-09-14T14:22:51Z</time>
      </trkpt>
      <trkpt lat="43.57094" lon="6.21447">
        <ele>267.4</ele>
        <time>2016-09-14T14:23:00Z</time>
      </trkpt>
      <trkpt lat="43.57088" lon="6.21434">
        <ele>268.1</ele>
        <time>2016-09-14T14:23:09Z</time>
      </trkpt>
      <trkpt lat="43.57083" lon="6.21423">
        <ele>268.9</ele>
        <time>2016-09-14T14:23:17Z</time>
      </trkpt>
      <trkpt lat="43.57078" lon="6.21411">
        <ele>269.7</ele>
        <time>2016-09-14T14:23:22Z</time>
      </trkpt>
      <trkpt lat="43.57077" lon="6.21398">
        <ele>270.7</ele>
        <time>2016-09-14T14:23:30Z</time>
      </trkpt>
      <trkpt lat="43.57074" lon="6.21386">
        <ele>271.3</ele>
        <time>2016-09-14T14:23:37Z</time>
      </trkpt>
      <trkpt lat="43.5707" lon="6.21373">
        <ele>271.6</ele>
        <time>2016-09-14T14:23:44Z</time>
      </trkpt>
      <trkpt lat="43.57064" lon="6.21364">
        <ele>271.9</ele>
        <time>2016-09-14T14:23:58Z</time>
      </trkpt>
      <trkpt lat="43.57059" lon="6.21354">
        <ele>272.5</ele>
        <time>2016-09-14T14:24:13Z</time>
      </trkpt>
      <trkpt lat="43.57053" lon="6.21343">
        <ele>272.5</ele>
        <time>2016-09-14T14:24:27Z</time>
      </trkpt>
      <trkpt lat="43.57049" lon="6.21332">
        <ele>272.7</ele>
        <time>2016-09-14T14:24:36Z</time>
      </trkpt>
      <trkpt lat="43.57047" lon="6.2132">
        <ele>273</ele>
        <time>2016-09-14T14:24:46Z</time>
      </trkpt>
      <trkpt lat="43.57043" lon="6.21307">
        <ele>273.3</ele>
        <time>2016-09-14T14:24:59Z</time>
      </trkpt>
      <trkpt lat="43.57039" lon="6.21295">
        <ele>273.4</ele>
        <time>2016-09-14T14:25:07Z</time>
      </trkpt>
      <trkpt lat="43.57034" lon="6.21284">
        <ele>273.5</ele>
        <time>2016-09-14T14:25:18Z</time>
      </trkpt>
      <trkpt lat="43.57029" lon="6.21273">
        <ele>273.3</ele>
        <time>2016-09-14T14:25:26Z</time>
      </trkpt>
      <trkpt lat="43.57022" lon="6.21264">
        <ele>273.3</ele>
        <time>2016-09-14T14:25:34Z</time>
      </trkpt>
      <trkpt lat="43.57016" lon="6.21254">
        <ele>273.2</ele>
        <time>2016-09-14T14:25:43Z</time>
      </trkpt>
      <trkpt lat="43.57011" lon="6.21244">
        <ele>273.1</ele>
        <time>2016-09-14T14:25:52Z</time>
      </trkpt>
      <trkpt lat="43.57005" lon="6.21233">
        <ele>273.2</ele>
        <time>2016-09-14T14:25:59Z</time>
      </trkpt>
      <trkpt lat="43.56999" lon="6.21224">
        <ele>272.8</ele>
        <time>2016-09-14T14:26:08Z</time>
      </trkpt>
      <trkpt lat="43.56993" lon="6.21213">
        <ele>272.7</ele>
        <time>2016-09-14T14:26:16Z</time>
      </trkpt>
      <trkpt lat="43.56986" lon="6.21204">
        <ele>272.7</ele>
        <time>2016-09-14T14:26:24Z</time>
      </trkpt>
      <trkpt lat="43.5698" lon="6.21194">
        <ele>272.4</ele>
        <time>2016-09-14T14:26:33Z</time>
      </trkpt>
      <trkpt lat="43.56976" lon="6.21182">
        <ele>272.2</ele>
        <time>2016-09-14T14:26:39Z</time>
      </trkpt>
      <trkpt lat="43.5697" lon="6.21172">
        <ele>272.2</ele>
        <time>2016-09-14T14:26:47Z</time>
      </trkpt>
      <trkpt lat="43.56965" lon="6.21161">
        <ele>272.1</ele>
        <time>2016-09-14T14:26:53Z</time>
      </trkpt>
      <trkpt lat="43.56959" lon="6.2115">
        <ele>271.8</ele>
        <time>2016-09-14T14:27:02Z</time>
      </trkpt>
      <trkpt lat="43.56954" lon="6.21138">
        <ele>271.8</ele>
        <time>2016-09-14T14:27:09Z</time>
      </trkpt>
      <trkpt lat="43.56949" lon="6.21127">
        <ele>271.6</ele>
        <time>2016-09-14T14:27:18Z</time>
      </trkpt>
      <trkpt lat="43.56945" lon="6.21115">
        <ele>271.1</ele>
        <time>2016-09-14T14:27:26Z</time>
      </trkpt>
      <trkpt lat="43.56942" lon="6.21102">
        <ele>270.8</ele>
        <time>2016-09-14T14:27:33Z</time>
      </trkpt>
      <trkpt lat="43.56939" lon="6.21091">
        <ele>270.1</ele>
        <time>2016-09-14T14:27:40Z</time>
      </trkpt>
      <trkpt lat="43.56936" lon="6.21078">
        <ele>269.7</ele>
        <time>2016-09-14T14:27:47Z</time>
      </trkpt>
      <trkpt lat="43.56933" lon="6.21066">
        <ele>269.5</ele>
        <time>2016-09-14T14:27:55Z</time>
      </trkpt>
      <trkpt lat="43.56931" lon="6.21052">
        <ele>268.8</ele>
        <time>2016-09-14T14:28:04Z</time>
      </trkpt>
      <trkpt lat="43.56929" lon="6.21039">
        <ele>268.3</ele>
        <time>2016-09-14T14:28:13Z</time>
      </trkpt>
      <trkpt lat="43.56926" lon="6.21025">
        <ele>267.9</ele>
        <time>2016-09-14T14:28:20Z</time>
      </trkpt>
      <trkpt lat="43.56924" lon="6.21013">
        <ele>267.5</ele>
        <time>2016-09-14T14:28:27Z</time>
      </trkpt>
      <trkpt lat="43.56924" lon="6.20999">
        <ele>266.8</ele>
        <time>2016-09-14T14:28:35Z</time>
      </trkpt>
      <trkpt lat="43.56923" lon="6.20986">
        <ele>266.4</ele>
        <time>2016-09-14T14:28:43Z</time>
      </trkpt>
      <trkpt lat="43.56922" lon="6.20973">
        <ele>265.7</ele>
        <time>2016-09-14T14:28:53Z</time>
      </trkpt>
      <trkpt lat="43.56924" lon="6.2096">
        <ele>265.4</ele>
        <time>2016-09-14T14:29:08Z</time>
      </trkpt>
      <trkpt lat="43.56922" lon="6.20947">
        <ele>265.4</ele>
        <time>2016-09-14T14:29:15Z</time>
      </trkpt>
      <trkpt lat="43.56922" lon="6.20933">
        <ele>265.3</ele>
        <time>2016-09-14T14:29:22Z</time>
      </trkpt>
      <trkpt lat="43.5692" lon="6.20919">
        <ele>265.3</ele>
        <time>2016-09-14T14:29:30Z</time>
      </trkpt>
      <trkpt lat="43.56917" lon="6.20907">
        <ele>265.2</ele>
        <time>2016-09-14T14:29:37Z</time>
      </trkpt>
      <trkpt lat="43.56915" lon="6.20895">
        <ele>265.4</ele>
        <time>2016-09-14T14:29:44Z</time>
      </trkpt>
      <trkpt lat="43.56911" lon="6.20883">
        <ele>266</ele>
        <time>2016-09-14T14:29:52Z</time>
      </trkpt>
      <trkpt lat="43.56907" lon="6.20871">
        <ele>266.3</ele>
        <time>2016-09-14T14:30:01Z</time>
      </trkpt>
      <trkpt lat="43.56904" lon="6.20859">
        <ele>265.9</ele>
        <time>2016-09-14T14:30:10Z</time>
      </trkpt>
      <trkpt lat="43.56903" lon="6.20845">
        <ele>265.7</ele>
        <time>2016-09-14T14:30:18Z</time>
      </trkpt>
      <trkpt lat="43.56902" lon="6.20833">
        <ele>265.3</ele>
        <time>2016-09-14T14:30:27Z</time>
      </trkpt>
      <trkpt lat="43.56899" lon="6.20819">
        <ele>265</ele>
        <time>2016-09-14T14:30:36Z</time>
      </trkpt>
      <trkpt lat="43.56897" lon="6.20806">
        <ele>265.1</ele>
        <time>2016-09-14T14:30:49Z</time>
      </trkpt>
      <trkpt lat="43.56895" lon="6.20793">
        <ele>264.9</ele>
        <time>2016-09-14T14:31:00Z</time>
      </trkpt>
      <trkpt lat="43.56893" lon="6.2078">
        <ele>264.8</ele>
        <time>2016-09-14T14:31:08Z</time>
      </trkpt>
      <trkpt lat="43.5689" lon="6.20768">
        <ele>264.9</ele>
        <time>2016-09-14T14:31:15Z</time>
      </trkpt>
      <trkpt lat="43.56888" lon="6.20755">
        <ele>265</ele>
        <time>2016-09-14T14:31:20Z</time>
      </trkpt>
      <trkpt lat="43.56884" lon="6.20743">
        <ele>265.3</ele>
        <time>2016-09-14T14:31:28Z</time>
      </trkpt>
      <trkpt lat="43.56878" lon="6.20731">
        <ele>265</ele>
        <time>2016-09-14T14:31:37Z</time>
      </trkpt>
      <trkpt lat="43.56873" lon="6.20721">
        <ele>265.2</ele>
        <time>2016-09-14T14:31:45Z</time>
      </trkpt>
      <trkpt lat="43.56866" lon="6.20712">
        <ele>265.3</ele>
        <time>2016-09-14T14:31:53Z</time>
      </trkpt>
      <trkpt lat="43.5686" lon="6.20701">
        <ele>265.3</ele>
        <time>2016-09-14T14:32:01Z</time>
      </trkpt>
      <trkpt lat="43.56853" lon="6.20693">
        <ele>265.2</ele>
        <time>2016-09-14T14:32:08Z</time>
      </trkpt>
      <trkpt lat="43.56849" lon="6.20682">
        <ele>265.5</ele>
        <time>2016-09-14T14:32:16Z</time>
      </trkpt>
      <trkpt lat="43.56842" lon="6.20673">
        <ele>265.7</ele>
        <time>2016-09-14T14:32:24Z</time>
      </trkpt>
      <trkpt lat="43.56833" lon="6.20667">
        <ele>265.7</ele>
        <time>2016-09-14T14:32:32Z</time>
      </trkpt>
      <trkpt lat="43.56825" lon="6.20661">
        <ele>266</ele>
        <time>2016-09-14T14:32:40Z</time>
      </trkpt>
      <trkpt lat="43.5682" lon="6.2065">
        <ele>265.9</ele>
        <time>2016-09-14T14:32:49Z</time>
      </trkpt>
      <trkpt lat="43.56815" lon="6.20639">
        <ele>266.4</ele>
        <time>2016-09-14T14:32:55Z</time>
      </trkpt>
      <trkpt lat="43.56809" lon="6.20628">
        <ele>267.1</ele>
        <time>2016-09-14T14:33:02Z</time>
      </trkpt>
      <trkpt lat="43.56805" lon="6.20617">
        <ele>267.8</ele>
        <time>2016-09-14T14:33:09Z</time>
      </trkpt>
      <trkpt lat="43.56801" lon="6.20603">
        <ele>268.3</ele>
        <time>2016-09-14T14:33:17Z</time>
      </trkpt>
      <trkpt lat="43.56797" lon="6.20592">
        <ele>269.1</ele>
        <time>2016-09-14T14:33:26Z</time>
      </trkpt>
      <trkpt lat="43.56791" lon="6.20583">
        <ele>269.7</ele>
        <time>2016-09-14T14:34:54Z</time>
      </trkpt>
      <trkpt lat="43.56785" lon="6.20571">
        <ele>269.6</ele>
        <time>2016-09-14T14:35:04Z</time>
      </trkpt>
      <trkpt lat="43.56782" lon="6.20559">
        <ele>269.6</ele>
        <time>2016-09-14T14:35:12Z</time>
      </trkpt>
      <trkpt lat="43.5678" lon="6.20545">
        <ele>269.5</ele>
        <time>2016-09-14T14:35:20Z</time>
      </trkpt>
      <trkpt lat="43.56782" lon="6.20531">
        <ele>269.6</ele>
        <time>2016-09-14T14:35:28Z</time>
      </trkpt>
      <trkpt lat="43.5678" lon="6.20519">
        <ele>269.4</ele>
        <time>2016-09-14T14:35:36Z</time>
      </trkpt>
      <trkpt lat="43.56778" lon="6.20506">
        <ele>269.6</ele>
        <time>2016-09-14T14:35:44Z</time>
      </trkpt>
      <trkpt lat="43.5678" lon="6.20492">
        <ele>270.3</ele>
        <time>2016-09-14T14:35:53Z</time>
      </trkpt>
      <trkpt lat="43.56779" lon="6.20478">
        <ele>270.5</ele>
        <time>2016-09-14T14:36:01Z</time>
      </trkpt>
      <trkpt lat="43.5678" lon="6.20466">
        <ele>270.6</ele>
        <time>2016-09-14T14:36:10Z</time>
      </trkpt>
      <trkpt lat="43.56782" lon="6.20453">
        <ele>270.9</ele>
        <time>2016-09-14T14:36:17Z</time>
      </trkpt>
      <trkpt lat="43.56786" lon="6.20442">
        <ele>271.6</ele>
        <time>2016-09-14T14:36:26Z</time>
      </trkpt>
      <trkpt lat="43.56788" lon="6.20429">
        <ele>271.8</ele>
        <time>2016-09-14T14:36:41Z</time>
      </trkpt>
      <trkpt lat="43.56788" lon="6.20415">
        <ele>271.8</ele>
        <time>2016-09-14T14:36:51Z</time>
      </trkpt>
      <trkpt lat="43.56787" lon="6.20402">
        <ele>272</ele>
        <time>2016-09-14T14:37:01Z</time>
      </trkpt>
      <trkpt lat="43.56786" lon="6.20388">
        <ele>271.8</ele>
        <time>2016-09-14T14:37:10Z</time>
      </trkpt>
      <trkpt lat="43.56783" lon="6.20377">
        <ele>271.5</ele>
        <time>2016-09-14T14:37:17Z</time>
      </trkpt>
      <trkpt lat="43.56781" lon="6.20365">
        <ele>271.4</ele>
        <time>2016-09-14T14:37:23Z</time>
      </trkpt>
      <trkpt lat="43.56783" lon="6.20351">
        <ele>270.9</ele>
        <time>2016-09-14T14:37:30Z</time>
      </trkpt>
      <trkpt lat="43.56784" lon="6.20339">
        <ele>271</ele>
        <time>2016-09-14T14:38:02Z</time>
      </trkpt>
      <trkpt lat="43.56783" lon="6.20326">
        <ele>271.1</ele>
        <time>2016-09-14T14:39:04Z</time>
      </trkpt>
      <trkpt lat="43.56781" lon="6.20313">
        <ele>271.4</ele>
        <time>2016-09-14T14:39:12Z</time>
      </trkpt>
      <trkpt lat="43.56777" lon="6.20301">
        <ele>271.6</ele>
        <time>2016-09-14T14:39:20Z</time>
      </trkpt>
      <trkpt lat="43.56774" lon="6.20288">
        <ele>271.5</ele>
        <time>2016-09-14T14:39:29Z</time>
      </trkpt>
      <trkpt lat="43.56769" lon="6.20275">
        <ele>271.6</ele>
        <time>2016-09-14T14:39:39Z</time>
      </trkpt>
      <trkpt lat="43.56766" lon="6.20262">
        <ele>271.6</ele>
        <time>2016-09-14T14:39:48Z</time>
      </trkpt>
      <trkpt lat="43.56761" lon="6.20251">
        <ele>271.5</ele>
        <time>2016-09-14T14:39:56Z</time>
      </trkpt>
      <trkpt lat="43.56759" lon="6.20239">
        <ele>271.8</ele>
        <time>2016-09-14T14:40:17Z</time>
      </trkpt>
      <trkpt lat="43.56756" lon="6.20225">
        <ele>272</ele>
        <time>2016-09-14T14:40:26Z</time>
      </trkpt>
      <trkpt lat="43.56753" lon="6.20213">
        <ele>272</ele>
        <time>2016-09-14T14:40:36Z</time>
      </trkpt>
      <trkpt lat="43.56751" lon="6.202">
        <ele>272.4</ele>
        <time>2016-09-14T14:40:46Z</time>
      </trkpt>
      <trkpt lat="43.56748" lon="6.20187">
        <ele>272.5</ele>
        <time>2016-09-14T14:40:55Z</time>
      </trkpt>
      <trkpt lat="43.56747" lon="6.20174">
        <ele>272.7</ele>
        <time>2016-09-14T14:41:03Z</time>
      </trkpt>
      <trkpt lat="43.56744" lon="6.20161">
        <ele>273.2</ele>
        <time>2016-09-14T14:41:11Z</time>
      </trkpt>
      <trkpt lat="43.56742" lon="6.20148">
        <ele>273.6</ele>
        <time>2016-09-14T14:41:20Z</time>
      </trkpt>
      <trkpt lat="43.5674" lon="6.20135">
        <ele>273.9</ele>
        <time>2016-09-14T14:41:29Z</time>
      </trkpt>
      <trkpt lat="43.56738" lon="6.20123">
        <ele>274.5</ele>
        <time>2016-09-14T14:41:37Z</time>
      </trkpt>
      <trkpt lat="43.56736" lon="6.2011">
        <ele>275.1</ele>
        <time>2016-09-14T14:41:45Z</time>
      </trkpt>
      <trkpt lat="43.56733" lon="6.20097">
        <ele>275.3</ele>
        <time>2016-09-14T14:41:53Z</time>
      </trkpt>
      <trkpt lat="43.56729" lon="6.20085">
        <ele>275.9</ele>
        <time>2016-09-14T14:42:01Z</time>
      </trkpt>
      <trkpt lat="43.56727" lon="6.20072">
        <ele>276.5</ele>
        <time>2016-09-14T14:42:10Z</time>
      </trkpt>
      <trkpt lat="43.56723" lon="6.2006">
        <ele>277.6</ele>
        <time>2016-09-14T14:42:18Z</time>
      </trkpt>
      <trkpt lat="43.5672" lon="6.20048">
        <ele>278.8</ele>
        <time>2016-09-14T14:42:27Z</time>
      </trkpt>
      <trkpt lat="43.56714" lon="6.20038">
        <ele>279.3</ele>
        <time>2016-09-14T14:42:34Z</time>
      </trkpt>
      <trkpt lat="43.5671" lon="6.20027">
        <ele>280</ele>
        <time>2016-09-14T14:42:43Z</time>
      </trkpt>
      <trkpt lat="43.56702" lon="6.20018">
        <ele>280.6</ele>
        <time>2016-09-14T14:42:52Z</time>
      </trkpt>
      <trkpt lat="43.56695" lon="6.20009">
        <ele>281.2</ele>
        <time>2016-09-14T14:43:03Z</time>
      </trkpt>
      <trkpt lat="43.56687" lon="6.20002">
        <ele>281.7</ele>
        <time>2016-09-14T14:43:12Z</time>
      </trkpt>
      <trkpt lat="43.56683" lon="6.1999">
        <ele>282.3</ele>
        <time>2016-09-14T14:43:20Z</time>
      </trkpt>
      <trkpt lat="43.56679" lon="6.19977">
        <ele>282.7</ele>
        <time>2016-09-14T14:43:27Z</time>
      </trkpt>
      <trkpt lat="43.56675" lon="6.19966">
        <ele>283</ele>
        <time>2016-09-14T14:43:33Z</time>
      </trkpt>
      <trkpt lat="43.5667" lon="6.19954">
        <ele>283.7</ele>
        <time>2016-09-14T14:43:41Z</time>
      </trkpt>
      <trkpt lat="43.56665" lon="6.19941">
        <ele>284</ele>
        <time>2016-09-14T14:43:51Z</time>
      </trkpt>
      <trkpt lat="43.56662" lon="6.19928">
        <ele>284.4</ele>
        <time>2016-09-14T14:43:59Z</time>
      </trkpt>
      <trkpt lat="43.5666" lon="6.19914">
        <ele>284.8</ele>
        <time>2016-09-14T14:44:07Z</time>
      </trkpt>
      <trkpt lat="43.5666" lon="6.19901">
        <ele>284.8</ele>
        <time>2016-09-14T14:44:15Z</time>
      </trkpt>
      <trkpt lat="43.56659" lon="6.19888">
        <ele>284.2</ele>
        <time>2016-09-14T14:44:23Z</time>
      </trkpt>
      <trkpt lat="43.5666" lon="6.19875">
        <ele>283.6</ele>
        <time>2016-09-14T14:44:30Z</time>
      </trkpt>
      <trkpt lat="43.56663" lon="6.19862">
        <ele>283</ele>
        <time>2016-09-14T14:44:39Z</time>
      </trkpt>
      <trkpt lat="43.56664" lon="6.19849">
        <ele>282.3</ele>
        <time>2016-09-14T14:44:48Z</time>
      </trkpt>
      <trkpt lat="43.56668" lon="6.19838">
        <ele>281.8</ele>
        <time>2016-09-14T14:44:54Z</time>
      </trkpt>
      <trkpt lat="43.56669" lon="6.19825">
        <ele>281.5</ele>
        <time>2016-09-14T14:45:02Z</time>
      </trkpt>
      <trkpt lat="43.56668" lon="6.19813">
        <ele>281.5</ele>
        <time>2016-09-14T14:45:10Z</time>
      </trkpt>
      <trkpt lat="43.56669" lon="6.198">
        <ele>281.8</ele>
        <time>2016-09-14T14:45:18Z</time>
      </trkpt>
      <trkpt lat="43.56672" lon="6.19788">
        <ele>282.4</ele>
        <time>2016-09-14T14:45:26Z</time>
      </trkpt>
      <trkpt lat="43.56673" lon="6.19774">
        <ele>283.5</ele>
        <time>2016-09-14T14:45:35Z</time>
      </trkpt>
      <trkpt lat="43.56678" lon="6.19762">
        <ele>284.1</ele>
        <time>2016-09-14T14:45:43Z</time>
      </trkpt>
      <trkpt lat="43.56681" lon="6.1975">
        <ele>284.2</ele>
        <time>2016-09-14T14:45:51Z</time>
      </trkpt>
      <trkpt lat="43.56683" lon="6.19737">
        <ele>284.2</ele>
        <time>2016-09-14T14:45:59Z</time>
      </trkpt>
      <trkpt lat="43.56686" lon="6.19724">
        <ele>284.5</ele>
        <time>2016-09-14T14:46:07Z</time>
      </trkpt>
      <trkpt lat="43.56687" lon="6.1971">
        <ele>284.5</ele>
        <time>2016-09-14T14:46:17Z</time>
      </trkpt>
      <trkpt lat="43.56692" lon="6.19699">
        <ele>284.4</ele>
        <time>2016-09-14T14:46:23Z</time>
      </trkpt>
      <trkpt lat="43.56697" lon="6.19689">
        <ele>284.9</ele>
        <time>2016-09-14T14:46:31Z</time>
      </trkpt>
      <trkpt lat="43.56699" lon="6.19676">
        <ele>285</ele>
        <time>2016-09-14T14:46:39Z</time>
      </trkpt>
      <trkpt lat="43.56699" lon="6.19663">
        <ele>285.9</ele>
        <time>2016-09-14T14:46:49Z</time>
      </trkpt>
      <trkpt lat="43.56695" lon="6.19651">
        <ele>287.7</ele>
        <time>2016-09-14T14:46:59Z</time>
      </trkpt>
      <trkpt lat="43.56694" lon="6.19637">
        <ele>288.9</ele>
        <time>2016-09-14T14:47:09Z</time>
      </trkpt>
      <trkpt lat="43.56692" lon="6.19625">
        <ele>290.1</ele>
        <time>2016-09-14T14:47:17Z</time>
      </trkpt>
      <trkpt lat="43.56692" lon="6.19612">
        <ele>290.8</ele>
        <time>2016-09-14T14:47:25Z</time>
      </trkpt>
      <trkpt lat="43.56693" lon="6.19598">
        <ele>291.4</ele>
        <time>2016-09-14T14:47:35Z</time>
      </trkpt>
      <trkpt lat="43.56695" lon="6.19585">
        <ele>291.5</ele>
        <time>2016-09-14T14:47:43Z</time>
      </trkpt>
      <trkpt lat="43.56695" lon="6.19572">
        <ele>292</ele>
        <time>2016-09-14T14:47:52Z</time>
      </trkpt>
      <trkpt lat="43.56699" lon="6.19559">
        <ele>292.7</ele>
        <time>2016-09-14T14:48:00Z</time>
      </trkpt>
      <trkpt lat="43.56701" lon="6.19546">
        <ele>293.6</ele>
        <time>2016-09-14T14:48:08Z</time>
      </trkpt>
      <trkpt lat="43.56704" lon="6.19533">
        <ele>294.4</ele>
        <time>2016-09-14T14:48:18Z</time>
      </trkpt>
      <trkpt lat="43.56707" lon="6.19521">
        <ele>295.5</ele>
        <time>2016-09-14T14:48:26Z</time>
      </trkpt>
      <trkpt lat="43.56707" lon="6.19509">
        <ele>296.7</ele>
        <time>2016-09-14T14:48:34Z</time>
      </trkpt>
      <trkpt lat="43.5671" lon="6.19495">
        <ele>297.5</ele>
        <time>2016-09-14T14:48:43Z</time>
      </trkpt>
      <trkpt lat="43.56714" lon="6.19483">
        <ele>299.1</ele>
        <time>2016-09-14T14:48:52Z</time>
      </trkpt>
      <trkpt lat="43.56717" lon="6.19472">
        <ele>300</ele>
        <time>2016-09-14T14:49:00Z</time>
      </trkpt>
      <trkpt lat="43.56722" lon="6.1946">
        <ele>301.4</ele>
        <time>2016-09-14T14:49:08Z</time>
      </trkpt>
      <trkpt lat="43.56724" lon="6.19447">
        <ele>302.7</ele>
        <time>2016-09-14T14:49:16Z</time>
      </trkpt>
      <trkpt lat="43.56728" lon="6.19435">
        <ele>304.3</ele>
        <time>2016-09-14T14:49:25Z</time>
      </trkpt>
      <trkpt lat="43.56731" lon="6.19421">
        <ele>306</ele>
        <time>2016-09-14T14:49:35Z</time>
      </trkpt>
      <trkpt lat="43.56732" lon="6.19408">
        <ele>307.8</ele>
        <time>2016-09-14T14:49:44Z</time>
      </trkpt>
      <trkpt lat="43.56729" lon="6.19395">
        <ele>309.2</ele>
        <time>2016-09-14T14:49:53Z</time>
      </trkpt>
      <trkpt lat="43.56727" lon="6.19382">
        <ele>310.6</ele>
        <time>2016-09-14T14:50:02Z</time>
      </trkpt>
      <trkpt lat="43.56723" lon="6.19369">
        <ele>311.5</ele>
        <time>2016-09-14T14:50:09Z</time>
      </trkpt>
      <trkpt lat="43.5672" lon="6.19356">
        <ele>312.3</ele>
        <time>2016-09-14T14:50:17Z</time>
      </trkpt>
      <trkpt lat="43.56717" lon="6.19344">
        <ele>314.1</ele>
        <time>2016-09-14T14:50:26Z</time>
      </trkpt>
      <trkpt lat="43.56714" lon="6.19332">
        <ele>315.7</ele>
        <time>2016-09-14T14:50:34Z</time>
      </trkpt>
      <trkpt lat="43.56712" lon="6.1932">
        <ele>317.2</ele>
        <time>2016-09-14T14:50:42Z</time>
      </trkpt>
      <trkpt lat="43.5671" lon="6.19306">
        <ele>318.7</ele>
        <time>2016-09-14T14:51:02Z</time>
      </trkpt>
      <trkpt lat="43.56709" lon="6.19293">
        <ele>319.7</ele>
        <time>2016-09-14T14:51:10Z</time>
      </trkpt>
      <trkpt lat="43.56708" lon="6.1928">
        <ele>321.2</ele>
        <time>2016-09-14T14:51:18Z</time>
      </trkpt>
      <trkpt lat="43.56708" lon="6.19266">
        <ele>322.5</ele>
        <time>2016-09-14T14:51:28Z</time>
      </trkpt>
      <trkpt lat="43.56706" lon="6.19253">
        <ele>323.6</ele>
        <time>2016-09-14T14:51:39Z</time>
      </trkpt>
      <trkpt lat="43.56703" lon="6.19241">
        <ele>324.7</ele>
        <time>2016-09-14T14:53:03Z</time>
      </trkpt>
      <trkpt lat="43.567" lon="6.19229">
        <ele>325.7</ele>
        <time>2016-09-14T14:54:06Z</time>
      </trkpt>
      <trkpt lat="43.56696" lon="6.19217">
        <ele>326.3</ele>
        <time>2016-09-14T14:54:16Z</time>
      </trkpt>
      <trkpt lat="43.56692" lon="6.19206">
        <ele>327.4</ele>
        <time>2016-09-14T14:54:26Z</time>
      </trkpt>
      <trkpt lat="43.56687" lon="6.19196">
        <ele>328.2</ele>
        <time>2016-09-14T14:54:38Z</time>
      </trkpt>
      <trkpt lat="43.56684" lon="6.19183">
        <ele>328.8</ele>
        <time>2016-09-14T14:54:46Z</time>
      </trkpt>
      <trkpt lat="43.56679" lon="6.19173">
        <ele>329.8</ele>
        <time>2016-09-14T14:54:56Z</time>
      </trkpt>
      <trkpt lat="43.56676" lon="6.19161">
        <ele>330.6</ele>
        <time>2016-09-14T14:55:04Z</time>
      </trkpt>
      <trkpt lat="43.56672" lon="6.19149">
        <ele>331.4</ele>
        <time>2016-09-14T14:55:12Z</time>
      </trkpt>
      <trkpt lat="43.56668" lon="6.19138">
        <ele>332</ele>
        <time>2016-09-14T14:55:20Z</time>
      </trkpt>
      <trkpt lat="43.56665" lon="6.19125">
        <ele>332.7</ele>
        <time>2016-09-14T14:55:29Z</time>
      </trkpt>
      <trkpt lat="43.56658" lon="6.19117">
        <ele>333.1</ele>
        <time>2016-09-14T14:55:45Z</time>
      </trkpt>
      <trkpt lat="43.56653" lon="6.19105">
        <ele>333.5</ele>
        <time>2016-09-14T14:55:58Z</time>
      </trkpt>
      <trkpt lat="43.56647" lon="6.19094">
        <ele>334.1</ele>
        <time>2016-09-14T14:56:08Z</time>
      </trkpt>
      <trkpt lat="43.56646" lon="6.19082">
        <ele>334.4</ele>
        <time>2016-09-14T14:56:14Z</time>
      </trkpt>
      <trkpt lat="43.56643" lon="6.1907">
        <ele>334.9</ele>
        <time>2016-09-14T14:56:22Z</time>
      </trkpt>
      <trkpt lat="43.5664" lon="6.19057">
        <ele>335.6</ele>
        <time>2016-09-14T14:56:31Z</time>
      </trkpt>
      <trkpt lat="43.56637" lon="6.19045">
        <ele>336.5</ele>
        <time>2016-09-14T14:56:42Z</time>
      </trkpt>
      <trkpt lat="43.56632" lon="6.19035">
        <ele>337.4</ele>
        <time>2016-09-14T14:56:50Z</time>
      </trkpt>
      <trkpt lat="43.56629" lon="6.19023">
        <ele>337.9</ele>
        <time>2016-09-14T14:56:57Z</time>
      </trkpt>
      <trkpt lat="43.56623" lon="6.19013">
        <ele>339.3</ele>
        <time>2016-09-14T14:57:07Z</time>
      </trkpt>
      <trkpt lat="43.56618" lon="6.19001">
        <ele>340.5</ele>
        <time>2016-09-14T14:57:15Z</time>
      </trkpt>
      <trkpt lat="43.56613" lon="6.1899">
        <ele>342</ele>
        <time>2016-09-14T14:57:24Z</time>
      </trkpt>
      <trkpt lat="43.5661" lon="6.18978">
        <ele>343.4</ele>
        <time>2016-09-14T14:57:32Z</time>
      </trkpt>
      <trkpt lat="43.56607" lon="6.18966">
        <ele>345.1</ele>
        <time>2016-09-14T14:57:41Z</time>
      </trkpt>
      <trkpt lat="43.56602" lon="6.18955">
        <ele>346.3</ele>
        <time>2016-09-14T14:57:51Z</time>
      </trkpt>
      <trkpt lat="43.56597" lon="6.18943">
        <ele>347.9</ele>
        <time>2016-09-14T14:58:01Z</time>
      </trkpt>
      <trkpt lat="43.56592" lon="6.18931">
        <ele>348.8</ele>
        <time>2016-09-14T14:58:10Z</time>
      </trkpt>
      <trkpt lat="43.56588" lon="6.18919">
        <ele>349.9</ele>
        <time>2016-09-14T14:58:18Z</time>
      </trkpt>
      <trkpt lat="43.56582" lon="6.18907">
        <ele>350.7</ele>
        <time>2016-09-14T14:58:27Z</time>
      </trkpt>
      <trkpt lat="43.56577" lon="6.18896">
        <ele>351.5</ele>
        <time>2016-09-14T14:58:35Z</time>
      </trkpt>
      <trkpt lat="43.56572" lon="6.18886">
        <ele>352.2</ele>
        <time>2016-09-14T14:58:44Z</time>
      </trkpt>
      <trkpt lat="43.56568" lon="6.18875">
        <ele>352.6</ele>
        <time>2016-09-14T14:58:53Z</time>
      </trkpt>
      <trkpt lat="43.56566" lon="6.18862">
        <ele>353.6</ele>
        <time>2016-09-14T14:59:03Z</time>
      </trkpt>
      <trkpt lat="43.56566" lon="6.18849">
        <ele>354.2</ele>
        <time>2016-09-14T14:59:13Z</time>
      </trkpt>
      <trkpt lat="43.56567" lon="6.18836">
        <ele>355</ele>
        <time>2016-09-14T14:59:21Z</time>
      </trkpt>
      <trkpt lat="43.56568" lon="6.18822">
        <ele>355.9</ele>
        <time>2016-09-14T14:59:32Z</time>
      </trkpt>
      <trkpt lat="43.56569" lon="6.18809">
        <ele>356.6</ele>
        <time>2016-09-14T14:59:41Z</time>
      </trkpt>
      <trkpt lat="43.56571" lon="6.18796">
        <ele>357.1</ele>
        <time>2016-09-14T14:59:49Z</time>
      </trkpt>
      <trkpt lat="43.56572" lon="6.18784">
        <ele>357.8</ele>
        <time>2016-09-14T14:59:57Z</time>
      </trkpt>
      <trkpt lat="43.5657" lon="6.18772">
        <ele>358.2</ele>
        <time>2016-09-14T15:00:09Z</time>
      </trkpt>
      <trkpt lat="43.56569" lon="6.1876">
        <ele>358.6</ele>
        <time>2016-09-14T15:00:34Z</time>
      </trkpt>
      <trkpt lat="43.56566" lon="6.18747">
        <ele>358.9</ele>
        <time>2016-09-14T15:02:05Z</time>
      </trkpt>
      <trkpt lat="43.56563" lon="6.18734">
        <ele>359.4</ele>
        <time>2016-09-14T15:02:17Z</time>
      </trkpt>
      <trkpt lat="43.56559" lon="6.18722">
        <ele>359.7</ele>
        <time>2016-09-14T15:02:27Z</time>
      </trkpt>
      <trkpt lat="43.56556" lon="6.1871">
        <ele>360</ele>
        <time>2016-09-14T15:02:36Z</time>
      </trkpt>
      <trkpt lat="43.56553" lon="6.18697">
        <ele>360.3</ele>
        <time>2016-09-14T15:02:45Z</time>
      </trkpt>
      <trkpt lat="43.56549" lon="6.18686">
        <ele>360.4</ele>
        <time>2016-09-14T15:02:53Z</time>
      </trkpt>
      <trkpt lat="43.56546" lon="6.18674">
        <ele>360.8</ele>
        <time>2016-09-14T15:03:00Z</time>
      </trkpt>
      <trkpt lat="43.56541" lon="6.18662">
        <ele>361.7</ele>
        <time>2016-09-14T15:03:09Z</time>
      </trkpt>
      <trkpt lat="43.56537" lon="6.1865">
        <ele>362.2</ele>
        <time>2016-09-14T15:03:18Z</time>
      </trkpt>
      <trkpt lat="43.56533" lon="6.18638">
        <ele>362.4</ele>
        <time>2016-09-14T15:03:26Z</time>
      </trkpt>
      <trkpt lat="43.56532" lon="6.18624">
        <ele>363</ele>
        <time>2016-09-14T15:03:35Z</time>
      </trkpt>
      <trkpt lat="43.56529" lon="6.18612">
        <ele>363.1</ele>
        <time>2016-09-14T15:03:43Z</time>
      </trkpt>
      <trkpt lat="43.56525" lon="6.186">
        <ele>363.3</ele>
        <time>2016-09-14T15:03:52Z</time>
      </trkpt>
      <trkpt lat="43.56521" lon="6.18588">
        <ele>363.4</ele>
        <time>2016-09-14T15:04:00Z</time>
      </trkpt>
      <trkpt lat="43.56517" lon="6.18576">
        <ele>363.8</ele>
        <time>2016-09-14T15:04:08Z</time>
      </trkpt>
      <trkpt lat="43.56515" lon="6.18564">
        <ele>364.5</ele>
        <time>2016-09-14T15:04:15Z</time>
      </trkpt>
      <trkpt lat="43.5651" lon="6.18552">
        <ele>364.8</ele>
        <time>2016-09-14T15:04:23Z</time>
      </trkpt>
      <trkpt lat="43.56507" lon="6.18539">
        <ele>365.2</ele>
        <time>2016-09-14T15:04:32Z</time>
      </trkpt>
      <trkpt lat="43.56504" lon="6.18526">
        <ele>365.4</ele>
        <time>2016-09-14T15:04:39Z</time>
      </trkpt>
      <trkpt lat="43.56502" lon="6.18512">
        <ele>365.9</ele>
        <time>2016-09-14T15:04:48Z</time>
      </trkpt>
      <trkpt lat="43.56501" lon="6.18499">
        <ele>366.2</ele>
        <time>2016-09-14T15:04:57Z</time>
      </trkpt>
      <trkpt lat="43.56501" lon="6.18486">
        <ele>366.6</ele>
        <time>2016-09-14T15:05:02Z</time>
      </trkpt>
      <trkpt lat="43.56502" lon="6.18473">
        <ele>366.8</ele>
        <time>2016-09-14T15:05:10Z</time>
      </trkpt>
      <trkpt lat="43.56504" lon="6.1846">
        <ele>367.3</ele>
        <time>2016-09-14T15:05:18Z</time>
      </trkpt>
      <trkpt lat="43.56505" lon="6.18447">
        <ele>367.5</ele>
        <time>2016-09-14T15:05:25Z</time>
      </trkpt>
      <trkpt lat="43.56508" lon="6.18434">
        <ele>367.9</ele>
        <time>2016-09-14T15:05:33Z</time>
      </trkpt>
      <trkpt lat="43.5651" lon="6.1842">
        <ele>368.2</ele>
        <time>2016-09-14T15:05:45Z</time>
      </trkpt>
      <trkpt lat="43.56513" lon="6.18408">
        <ele>368.9</ele>
        <time>2016-09-14T15:05:52Z</time>
      </trkpt>
      <trkpt lat="43.56517" lon="6.18395">
        <ele>369.3</ele>
        <time>2016-09-14T15:05:58Z</time>
      </trkpt>
      <trkpt lat="43.56522" lon="6.18383">
        <ele>369.4</ele>
        <time>2016-09-14T15:06:06Z</time>
      </trkpt>
      <trkpt lat="43.56525" lon="6.18368">
        <ele>369.7</ele>
        <time>2016-09-14T15:06:14Z</time>
      </trkpt>
      <trkpt lat="43.56528" lon="6.18355">
        <ele>369.8</ele>
        <time>2016-09-14T15:06:24Z</time>
      </trkpt>
      <trkpt lat="43.56533" lon="6.18345">
        <ele>370.1</ele>
        <time>2016-09-14T15:06:33Z</time>
      </trkpt>
      <trkpt lat="43.56542" lon="6.18336">
        <ele>370.1</ele>
        <time>2016-09-14T15:06:41Z</time>
      </trkpt>
      <trkpt lat="43.5655" lon="6.18329">
        <ele>370.7</ele>
        <time>2016-09-14T15:06:48Z</time>
      </trkpt>
      <trkpt lat="43.56558" lon="6.1832">
        <ele>371.1</ele>
        <time>2016-09-14T15:06:54Z</time>
      </trkpt>
      <trkpt lat="43.56566" lon="6.18313">
        <ele>371.3</ele>
        <time>2016-09-14T15:07:00Z</time>
      </trkpt>
      <trkpt lat="43.56575" lon="6.18307">
        <ele>372</ele>
        <time>2016-09-14T15:07:08Z</time>
      </trkpt>
      <trkpt lat="43.56584" lon="6.18304">
        <ele>372</ele>
        <time>2016-09-14T15:07:17Z</time>
      </trkpt>
      <trkpt lat="43.56593" lon="6.18299">
        <ele>372.7</ele>
        <time>2016-09-14T15:07:25Z</time>
      </trkpt>
      <trkpt lat="43.56602" lon="6.18294">
        <ele>372.8</ele>
        <time>2016-09-14T15:07:34Z</time>
      </trkpt>
      <trkpt lat="43.56611" lon="6.18291">
        <ele>372.8</ele>
        <time>2016-09-14T15:07:40Z</time>
      </trkpt>
      <trkpt lat="43.56621" lon="6.18287">
        <ele>372.9</ele>
        <time>2016-09-14T15:07:48Z</time>
      </trkpt>
      <trkpt lat="43.56628" lon="6.18279">
        <ele>373</ele>
        <time>2016-09-14T15:08:00Z</time>
      </trkpt>
      <trkpt lat="43.56637" lon="6.18274">
        <ele>372.5</ele>
        <time>2016-09-14T15:08:10Z</time>
      </trkpt>
      <trkpt lat="43.56645" lon="6.1827">
        <ele>372</ele>
        <time>2016-09-14T15:08:22Z</time>
      </trkpt>
      <trkpt lat="43.56654" lon="6.18263">
        <ele>372</ele>
        <time>2016-09-14T15:08:31Z</time>
      </trkpt>
      <trkpt lat="43.56663" lon="6.18257">
        <ele>372</ele>
        <time>2016-09-14T15:08:38Z</time>
      </trkpt>
      <trkpt lat="43.56671" lon="6.1825">
        <ele>372</ele>
        <time>2016-09-14T15:08:45Z</time>
      </trkpt>
      <trkpt lat="43.56679" lon="6.18243">
        <ele>372.1</ele>
        <time>2016-09-14T15:08:52Z</time>
      </trkpt>
      <trkpt lat="43.56687" lon="6.18235">
        <ele>372.1</ele>
        <time>2016-09-14T15:08:58Z</time>
      </trkpt>
      <trkpt lat="43.56696" lon="6.1823">
        <ele>372.1</ele>
        <time>2016-09-14T15:09:05Z</time>
      </trkpt>
      <trkpt lat="43.56705" lon="6.18227">
        <ele>371.8</ele>
        <time>2016-09-14T15:09:11Z</time>
      </trkpt>
      <trkpt lat="43.56714" lon="6.18224">
        <ele>371.7</ele>
        <time>2016-09-14T15:09:17Z</time>
      </trkpt>
      <trkpt lat="43.56723" lon="6.18217">
        <ele>372.1</ele>
        <time>2016-09-14T15:09:26Z</time>
      </trkpt>
      <trkpt lat="43.5673" lon="6.1821">
        <ele>372</ele>
        <time>2016-09-14T15:09:34Z</time>
      </trkpt>
      <trkpt lat="43.56737" lon="6.18201">
        <ele>372.2</ele>
        <time>2016-09-14T15:09:44Z</time>
      </trkpt>
      <trkpt lat="43.56744" lon="6.18193">
        <ele>371.6</ele>
        <time>2016-09-14T15:09:53Z</time>
      </trkpt>
      <trkpt lat="43.56752" lon="6.18183">
        <ele>371.8</ele>
        <time>2016-09-14T15:10:02Z</time>
      </trkpt>
      <trkpt lat="43.5676" lon="6.18176">
        <ele>371.9</ele>
        <time>2016-09-14T15:10:10Z</time>
      </trkpt>
      <trkpt lat="43.56767" lon="6.18167">
        <ele>371.8</ele>
        <time>2016-09-14T15:10:32Z</time>
      </trkpt>
      <trkpt lat="43.56776" lon="6.18162">
        <ele>372.7</ele>
        <time>2016-09-14T15:10:41Z</time>
      </trkpt>
      <trkpt lat="43.56785" lon="6.18157">
        <ele>373.6</ele>
        <time>2016-09-14T15:10:50Z</time>
      </trkpt>
      <trkpt lat="43.56795" lon="6.18161">
        <ele>374.6</ele>
        <time>2016-09-14T15:11:05Z</time>
      </trkpt>
      <trkpt lat="43.56801" lon="6.18164">
        <ele>362.3</ele>
        <time>2016-09-14T15:11:24Z</time>
      </trkpt>
    </trkseg>
  </trk>
</gpx>